Another Hard Day at the Office Weather Stats

 
 
 

High monthly outside Temperature, 22.8 , C
Low monthly outside Temperature, -1.0 , C
High yearly outside Temperature, 30.9 , C
Low yearly outside Temperature, -2.2 , C

Low monthly barometer, 1001.1 , mb
High monthly barometer, 1028.0 , mb
Low yearly barometer, 975.0 , mb
High yearly barometer 1041.1 , mb

High wind speed, 25.0 , mph
Time of High wind speed, 21:37 , mph
High monthly wind speed, 47.0 , mph
High yearly wind speed, 55.0 , mph

 

 




3126
                    Temp     Hi    Low   Out    Dew  Wind  Wind   Wind    Hi    Hi   Wind   Heat    THW                Rain    Heat    Cool    In     In    In     In     In   In Air  Wind  Wind    ISS   Arc.
  Date    Time     Out   Temp   Temp   Hum    Pt. Speed   Dir    Run Speed   Dir  Chill  Index  Index   Bar    Rain  Rate    D-D     D-D    Temp   Hum    Dew   Heat    EMC Density  Samp   Tx   Recept  Int.
---------------------------------------------------------------------------------------------------------------------------------------------------------------------------------------------------------------
22/08/19   0:05   15.3   15.4   15.3    77   11.3   0.0   ---   0.00   0.0   ---   15.3   15.1   15.1  1024.7  0.00  0.00   0.011   0.000   27.3    47   15.0   27.2   8.63  .0730    115    1    100.0    5 
22/08/19   0:10   15.2   15.3   15.2    77   11.2   0.0   ---   0.00   0.0   ---   15.2   14.9   14.9  1024.7  0.00  0.00   0.011   0.000   27.3    47   15.0   27.2   8.63  .0730    114    1    100.0    5 
22/08/19   0:15   15.1   15.2   15.1    78   11.2   0.0   ---   0.00   0.0   ---   15.1   14.9   14.9  1024.7  0.00  0.00   0.011   0.000   27.3    47   15.0   27.2   8.63  .0730    117    1    100.0    5 
22/08/19   0:20   15.0   15.1   14.9    78   11.2   0.0   ---   0.00   0.0   ---   15.0   14.8   14.8  1024.8  0.00  0.00   0.012   0.000   27.2    47   14.9   27.1   8.63  .0730    116    1    100.0    5 
22/08/19   0:25   14.9   14.9   14.9    78   11.1   0.0   ---   0.00   0.0   ---   14.9   14.7   14.7  1024.7  0.00  0.00   0.012   0.000   27.2    47   14.9   27.1   8.63  .0730    117    1    100.0    5 
22/08/19   0:30   14.8   14.9   14.8    78   11.0   0.0   ---   0.00   0.0   ---   14.8   14.6   14.6  1024.7  0.00  0.00   0.012   0.000   27.2    47   14.9   27.1   8.63  .0730    117    1    100.0    5 
22/08/19   0:35   14.7   14.8   14.7    78   10.9   0.0   ---   0.00   0.0   ---   14.7   14.6   14.6  1024.7  0.00  0.00   0.013   0.000   27.1    47   14.8   27.0   8.63  .0730    117    1    100.0    5 
22/08/19   0:40   14.6   14.7   14.6    78   10.8   0.0   ---   0.00   0.0   ---   14.6   14.4   14.4  1024.7  0.00  0.00   0.013   0.000   27.1    47   14.8   26.9   8.64  .0731    115    1    100.0    5 
22/08/19   0:45   14.6   14.6   14.6    79   11.0   0.0   ---   0.00   0.0   ---   14.6   14.4   14.4  1024.6  0.00  0.00   0.013   0.000   27.1    47   14.8   26.9   8.64  .0730    116    1    100.0    5 
22/08/19   0:50   14.4   14.6   14.4    79   10.8   0.0   ---   0.00   0.0   ---   14.4   14.3   14.3  1024.6  0.00  0.00   0.014   0.000   27.0    47   14.7   26.9   8.64  .0731    117    1    100.0    5 
22/08/19   0:55   14.4   14.4   14.4    79   10.8   0.0   ---   0.00   0.0   ---   14.4   14.2   14.2  1024.5  0.00  0.00   0.014   0.000   27.0    47   14.7   26.9   8.64  .0731    117    1    100.0    5 
22/08/19   1:00   14.3   14.4   14.3    79   10.7   0.0   ---   0.00   0.0   ---   14.3   14.1   14.1  1024.5  0.00  0.00   0.014   0.000   27.0    47   14.7   26.9   8.64  .0731    115    1    100.0    5 
22/08/19   1:05   14.2   14.3   14.2    80   10.8   0.0   ---   0.00   0.0   ---   14.2   14.1   14.1  1024.5  0.00  0.00   0.014   0.000   26.9    47   14.7   26.8   8.64  .0731    117    1    100.0    5 
22/08/19   1:10   14.2   14.2   14.2    80   10.8   0.0   ---   0.00   0.0   ---   14.2   14.1   14.1  1024.5  0.00  0.00   0.014   0.000   26.9    47   14.6   26.8   8.64  .0731    117    1    100.0    5 
22/08/19   1:15   14.1   14.2   14.1    80   10.7   0.0   ---   0.00   0.0   ---   14.1   13.9   13.9  1024.4  0.00  0.00   0.015   0.000   26.9    47   14.6   26.8   8.64  .0731    116    1    100.0    5 
22/08/19   1:20   14.1   14.1   14.1    80   10.7   0.0   ---   0.00   0.0   ---   14.1   13.9   13.9  1024.4  0.00  0.00   0.015   0.000   26.9    47   14.6   26.8   8.64  .0731    117    1    100.0    5 
22/08/19   1:25   14.1   14.1   14.1    81   10.8   0.0   ---   0.00   0.0   ---   14.1   13.9   13.9  1024.4  0.00  0.00   0.015   0.000   26.8    47   14.6   26.7   8.64  .0731    117    1    100.0    5 
22/08/19   1:30   14.0   14.1   14.0    81   10.8   0.0   ---   0.00   0.0   ---   14.0   13.9   13.9  1024.4  0.00  0.00   0.015   0.000   26.8    47   14.6   26.7   8.64  .0731    115    1    100.0    5 
22/08/19   1:35   13.9   14.0   13.9    81   10.7   0.0   ---   0.00   0.0   ---   13.9   13.8   13.8  1024.4  0.00  0.00   0.015   0.000   26.8    47   14.5   26.7   8.65  .0731    116    1    100.0    5 
22/08/19   1:40   14.0   14.0   13.9    81   10.8   0.0   ---   0.00   0.0   ---   14.0   13.9   13.9  1024.3  0.00  0.00   0.015   0.000   26.7    47   14.5   26.6   8.65  .0731    117    1    100.0    5 
22/08/19   1:45   14.0   14.0   14.0    81   10.8   0.0   ---   0.00   0.0   ---   14.0   13.9   13.9  1024.2  0.00  0.00   0.015   0.000   26.7    47   14.5   26.6   8.65  .0731    117    1    100.0    5 
22/08/19   1:50   14.0   14.0   13.9    82   11.0   0.0   ---   0.00   0.0   ---   14.0   13.9   13.9  1024.3  0.00  0.00   0.015   0.000   26.7    47   14.4   26.6   8.65  .0731    117    1    100.0    5 
22/08/19   1:55   14.0   14.0   14.0    82   11.0   0.0   WSW   0.00   2.0   WSW   14.0   13.9   13.9  1024.2  0.00  0.00   0.015   0.000   26.7    47   14.4   26.6   8.65  .0731    117    1    100.0    5 
22/08/19   2:00   14.1   14.1   14.0    83   11.3   0.0   WSW   0.00   3.0   WSW   14.1   14.0   14.0  1024.2  0.00  0.00   0.015   0.000   26.6    47   14.4   26.5   8.65  .0732    117    1    100.0    5 
22/08/19   2:05   14.3   14.3   14.1    83   11.4   1.0   WSW   0.08   3.0   WSW   14.3   14.2   14.2  1024.2  0.00  0.00   0.014   0.000   26.6    47   14.4   26.5   8.65  .0732    116    1    100.0    5 
22/08/19   2:10   14.3   14.3   14.3    82   11.3   1.0   WSW   0.08   4.0   WSW   14.3   14.2   14.2  1024.3  0.00  0.00   0.014   0.000   26.6    47   14.3   26.4   8.65  .0732    117    1    100.0    5 
22/08/19   2:15   14.3   14.3   14.3    82   11.2   0.0   WSW   0.00   3.0   WSW   14.3   14.2   14.2  1024.3  0.00  0.00   0.014   0.000   26.6    47   14.3   26.4   8.65  .0732    117    1    100.0    5 
22/08/19   2:20   14.3   14.3   14.2    82   11.2   1.0   WSW   0.08   4.0   WSW   14.3   14.2   14.2  1024.3  0.00  0.00   0.014   0.000   26.6    47   14.3   26.4   8.65  .0732    116    1    100.0    5 
22/08/19   2:25   14.2   14.3   14.2    82   11.1   0.0   WSW   0.00   2.0   WSW   14.2   14.1   14.1  1024.3  0.00  0.00   0.014   0.000   26.5    47   14.3   26.4   8.66  .0732    116    1    100.0    5 
22/08/19   2:30   14.1   14.2   14.1    83   11.2   0.0   ---   0.00   0.0   ---   14.1   13.9   13.9  1024.1  0.00  0.00   0.015   0.000   26.4    47   14.2   26.3   8.66  .0732    117    1    100.0    5 
22/08/19   2:35   14.0   14.1   14.0    83   11.2   0.0   ---   0.00   0.0   ---   14.0   13.9   13.9  1024.2  0.00  0.00   0.015   0.000   26.4    47   14.2   26.3   8.66  .0732    117    1    100.0    5 
22/08/19   2:40   13.9   14.0   13.9    83   11.1   0.0   WSW   0.00   3.0   WSW   13.9   13.8   13.8  1024.3  0.00  0.00   0.015   0.000   26.4    47   14.2   26.3   8.66  .0732    116    1    100.0    5 
22/08/19   2:45   13.9   13.9   13.9    83   11.1   0.0   WSW   0.00   2.0   WSW   13.9   13.8   13.8  1024.3  0.00  0.00   0.015   0.000   26.3    47   14.1   26.3   8.66  .0732    117    1    100.0    5 
22/08/19   2:50   14.0   14.0   13.9    83   11.2   0.0   WSW   0.00   3.0   WSW   14.0   13.9   13.9  1024.2  0.00  0.00   0.015   0.000   26.3    47   14.1   26.3   8.66  .0732    115    1    100.0    5 
22/08/19   2:55   14.1   14.1   14.0    83   11.2   0.0   WSW   0.00   2.0   WSW   14.1   13.9   13.9  1024.3  0.00  0.00   0.015   0.000   26.3    47   14.1   26.3   8.66  .0732    117    1    100.0    5 
22/08/19   3:00   14.1   14.1   14.1    84   11.4   0.0   WSW   0.00   4.0   WSW   14.1   14.1   14.1  1024.2  0.00  0.00   0.015   0.000   26.3    47   14.1   26.2   8.66  .0733    116    1    100.0    5 
22/08/19   3:05   14.1   14.2   14.1    83   11.3   0.0   ---   0.00   0.0   ---   14.1   14.0   14.0  1024.2  0.00  0.00   0.015   0.000   26.2    47   14.0   26.2   8.67  .0733    117    1    100.0    5 
22/08/19   3:10   14.1   14.1   14.1    83   11.2   0.0   ---   0.00   0.0   ---   14.1   13.9   13.9  1024.1  0.00  0.00   0.015   0.000   26.2    47   14.0   26.2   8.67  .0733    115    1    100.0    5 
22/08/19   3:15   14.0   14.1   14.0    83   11.2   0.0   ---   0.00   0.0   ---   14.0   13.9   13.9  1024.0  0.00  0.00   0.015   0.000   26.2    47   14.0   26.2   8.67  .0733    115    1    100.0    5 
22/08/19   3:20   13.9   14.0   13.9    83   11.0   0.0   ---   0.00   0.0   ---   13.9   13.8   13.8  1024.0  0.00  0.00   0.015   0.000   26.2    47   14.0   26.1   8.67  .0733    115    1    100.0    5 
22/08/19   3:25   13.8   13.9   13.8    83   11.0   0.0   ---   0.00   0.0   ---   13.8   13.7   13.7  1024.0  0.00  0.00   0.016   0.000   26.1    47   13.9   26.1   8.67  .0733    116    1    100.0    5 
22/08/19   3:30   13.8   13.8   13.8    84   11.1   0.0   ---   0.00   0.0   ---   13.8   13.7   13.7  1024.0  0.00  0.00   0.016   0.000   26.1    47   13.9   26.1   8.67  .0733    117    1    100.0    5 
22/08/19   3:35   13.8   13.8   13.8    84   11.2   0.0   ---   0.00   0.0   ---   13.8   13.8   13.8  1024.1  0.00  0.00   0.016   0.000   26.1    47   13.9   26.1   8.67  .0733    117    1    100.0    5 
22/08/19   3:40   13.8   13.8   13.8    84   11.2   0.0   ---   0.00   0.0   ---   13.8   13.8   13.8  1024.0  0.00  0.00   0.016   0.000   26.1    47   13.9   26.0   8.67  .0733    116    1    100.0    5 
22/08/19   3:45   13.8   13.8   13.8    84   11.1   0.0   ---   0.00   0.0   ---   13.8   13.7   13.7  1024.0  0.00  0.00   0.016   0.000   26.1    47   13.9   26.0   8.67  .0733    118    1    100.0    5 
22/08/19   3:50   13.8   13.8   13.8    84   11.1   0.0   ---   0.00   0.0   ---   13.8   13.7   13.7  1024.0  0.00  0.00   0.016   0.000   26.1    47   13.9   26.0   8.67  .0733    117    1    100.0    5 
22/08/19   3:55   13.8   13.8   13.8    84   11.1   0.0   WSW   0.00   4.0   WSW   13.8   13.7   13.7  1023.9  0.00  0.00   0.016   0.000   26.1    47   13.9   26.1   8.67  .0733    117    1    100.0    5 
22/08/19   4:00   13.8   13.9   13.8    84   11.2   0.0   WSW   0.00   3.0   WSW   13.8   13.8   13.8  1024.0  0.00  0.00   0.016   0.000   26.1    47   13.9   26.0   8.67  .0733    116    1    100.0    5 
22/08/19   4:05   13.9   13.9   13.9    85   11.5   0.0   WSW   0.00   4.0   WSW   13.9   13.9   13.9  1023.9  0.00  0.00   0.015   0.000   26.0    47   13.8   25.9   8.67  .0733    115    1    100.0    5 
22/08/19   4:10   14.0   14.0   13.9    85   11.5   1.0   WSW   0.08   4.0   WSW   14.0   13.9   13.9  1023.9  0.00  0.00   0.015   0.000   26.0    47   13.8   25.9   8.67  .0733    117    1    100.0    5 
22/08/19   4:15   14.1   14.1   14.0    85   11.6   1.0   WSW   0.08   5.0   WSW   14.1   14.0   14.0  1024.0  0.00  0.00   0.015   0.000   25.9    47   13.8   25.9   8.68  .0734    117    1    100.0    5 
22/08/19   4:20   14.1   14.1   14.1    85   11.6   0.0   WSW   0.00   3.0   WSW   14.1   14.1   14.1  1024.1  0.00  0.00   0.015   0.000   25.9    47   13.7   25.8   8.68  .0734    117    1    100.0    5 
22/08/19   4:25   14.2   14.2   14.1    85   11.7   2.0   WSW   0.17   7.0   WSW   14.2   14.1   14.1  1024.0  0.00  0.00   0.014   0.000   25.8    47   13.7   25.7   8.68  .0734    116    1    100.0    5 
22/08/19   4:30   14.2   14.2   14.2    85   11.7   2.0     W   0.17   9.0     W   14.2   14.2   14.2  1024.1  0.00  0.00   0.014   0.000   25.8    47   13.6   25.7   8.68  .0734    117    1    100.0    5 
22/08/19   4:35   14.3   14.3   14.3    85   11.8   2.0     W   0.17   5.0     W   14.3   14.2   14.2  1024.1  0.00  0.00   0.014   0.000   25.8    47   13.6   25.7   8.68  .0734    117    1    100.0    5 
22/08/19   4:40   14.3   14.3   14.3    85   11.8   1.0     W   0.08   4.0     W   14.3   14.2   14.2  1024.1  0.00  0.00   0.014   0.000   25.7    47   13.6   25.6   8.68  .0734    117    1    100.0    5 
22/08/19   4:45   14.2   14.3   14.2    85   11.7   0.0     W   0.00   4.0     W   14.2   14.1   14.1  1024.0  0.00  0.00   0.014   0.000   25.7    47   13.6   25.6   8.68  .0734    117    1    100.0    5 
22/08/19   4:50   14.1   14.2   14.1    84   11.4   0.0     W   0.00   3.0     W   14.1   14.1   14.1  1024.0  0.00  0.00   0.015   0.000   25.7    47   13.6   25.6   8.68  .0734    118    1    100.0    5 
22/08/19   4:55   14.0   14.1   14.0    85   11.5   0.0     W   0.00   3.0     W   14.0   13.9   13.9  1024.0  0.00  0.00   0.015   0.000   25.7    47   13.5   25.6   8.69  .0734    116    1    100.0    5 
22/08/19   5:00   14.0   14.1   14.0    85   11.5   0.0     W   0.00   1.0     W   14.0   13.9   13.9  1024.0  0.00  0.00   0.015   0.000   25.6    47   13.5   25.5   8.69  .0735    116    1    100.0    5 
22/08/19   5:05   14.0   14.0   14.0    85   11.5   0.0     W   0.00   5.0     W   14.0   13.9   13.9  1024.0  0.00  0.00   0.015   0.000   25.6    47   13.5   25.5   8.69  .0735    113    1     99.1    5 
22/08/19   5:10   14.0   14.0   14.0    85   11.5   0.0     W   0.00   1.0     W   14.0   13.9   13.9  1024.0  0.00  0.00   0.015   0.000   25.6    47   13.4   25.4   8.69  .0735    117    1    100.0    5 
22/08/19   5:15   13.8   14.0   13.8    85   11.4   0.0     W   0.00   1.0     W   13.8   13.8   13.8  1024.1  0.00  0.00   0.016   0.000   25.6    47   13.4   25.4   8.69  .0735    116    1    100.0    5 
22/08/19   5:20   13.7   13.8   13.7    85   11.2   0.0   ---   0.00   0.0   ---   13.7   13.7   13.7  1024.1  0.00  0.00   0.016   0.000   25.5    47   13.4   25.3   8.69  .0735    117    1    100.0    5 
22/08/19   5:25   13.7   13.7   13.7    85   11.2   0.0   ---   0.00   0.0   ---   13.7   13.6   13.6  1024.1  0.00  0.00   0.016   0.000   25.5    47   13.4   25.3   8.69  .0735    116    1    100.0    5 
22/08/19   5:30   13.7   13.7   13.6    85   11.2   0.0     W   0.00   3.0     W   13.7   13.6   13.6  1024.1  0.00  0.00   0.016   0.000   25.5    48   13.7   25.4   8.89  .0735    115    1    100.0    5 
22/08/19   5:35   13.6   13.6   13.6    85   11.1   0.0   ---   0.00   0.0   ---   13.6   13.5   13.5  1024.0  0.00  0.00   0.017   0.000   25.4    48   13.6   25.3   8.89  .0735    117    1    100.0    5 
22/08/19   5:40   13.4   13.6   13.4    85   11.0   0.0     W   0.00   2.0     W   13.4   13.4   13.4  1024.1  0.00  0.00   0.017   0.000   25.4    48   13.6   25.3   8.90  .0735    116    1    100.0    5 
22/08/19   5:45   13.4   13.4   13.4    85   10.9   1.0     W   0.08   4.0     W   13.4   13.3   13.3  1024.1  0.00  0.00   0.017   0.000   25.4    48   13.6   25.3   8.90  .0735    116    1    100.0    5 
22/08/19   5:50   13.3   13.4   13.3    85   10.9   0.0     W   0.00   1.0     W   13.3   13.3   13.3  1024.1  0.00  0.00   0.017   0.000   25.4    48   13.6   25.3   8.90  .0735    118    1    100.0    5 
22/08/19   5:55   13.3   13.3   13.3    85   10.8   0.0   ---   0.00   0.0   ---   13.3   13.2   13.2  1024.1  0.00  0.00   0.018   0.000   25.3    48   13.5   25.2   8.90  .0735    117    1    100.0    5 
22/08/19   6:00   13.2   13.3   13.2    85   10.7   0.0     W   0.00   1.0     W   13.2   13.1   13.1  1024.3  0.00  0.00   0.018   0.000   25.3    48   13.5   25.2   8.90  .0736    116    1    100.0    5 
22/08/19   6:05   13.1   13.2   13.1    85   10.6   0.0   ---   0.00   0.0   ---   13.1   13.0   13.0  1024.3  0.00  0.00   0.018   0.000   25.3    48   13.5   25.2   8.90  .0736    116    1    100.0    5 
22/08/19   6:10   13.0   13.1   13.0    85   10.5   0.0     W   0.00   1.0     W   13.0   12.9   12.9  1024.2  0.00  0.00   0.019   0.000   25.3    48   13.5   25.2   8.90  .0736    117    1    100.0    5 
22/08/19   6:15   12.9   13.0   12.9    85   10.5   0.0   ---   0.00   0.0   ---   12.9   12.9   12.9  1024.2  0.00  0.00   0.019   0.000   25.2    48   13.4   25.1   8.90  .0736    115    1    100.0    5 
22/08/19   6:20   12.9   12.9   12.9    86   10.7   0.0   ---   0.00   0.0   ---   12.9   12.9   12.9  1024.3  0.00  0.00   0.019   0.000   25.2    48   13.4   25.1   8.90  .0736    116    1    100.0    5 
22/08/19   6:25   12.9   12.9   12.9    86   10.6   0.0   ---   0.00   0.0   ---   12.9   12.8   12.8  1024.4  0.00  0.00   0.019   0.000   25.2    48   13.4   25.0   8.90  .0736    116    1    100.0    5 
22/08/19   6:30   12.9   12.9   12.9    86   10.7   0.0    SW   0.00   1.0     W   12.9   12.9   12.9  1024.4  0.00  0.00   0.019   0.000   25.2    48   13.4   25.0   8.90  .0736    117    1    100.0    5 
22/08/19   6:35   12.9   12.9   12.9    86   10.7   0.0   WSW   0.00   1.0   WSW   12.9   12.9   12.9  1024.4  0.00  0.00   0.019   0.000   25.1    48   13.3   24.9   8.91  .0736    116    1    100.0    5 
22/08/19   6:40   12.9   12.9   12.9    86   10.7   0.0   ---   0.00   0.0   ---   12.9   12.9   12.9  1024.4  0.00  0.00   0.019   0.000   25.1    48   13.3   24.9   8.91  .0736    116    1    100.0    5 
22/08/19   6:45   12.9   13.0   12.9    86   10.7   0.0   WSW   0.00   1.0   WSW   12.9   12.9   12.9  1024.5  0.00  0.00   0.019   0.000   25.1    48   13.3   24.9   8.91  .0736    117    1    100.0    5 
22/08/19   6:50   13.0   13.0   12.9    86   10.7   0.0   ---   0.00   0.0   ---   13.0   12.9   12.9  1024.5  0.00  0.00   0.019   0.000   25.1    48   13.3   24.9   8.91  .0736    116    1    100.0    5 
22/08/19   6:55   13.1   13.1   13.0    86   10.8   0.0   ---   0.00   0.0   ---   13.1   13.0   13.0  1024.5  0.00  0.00   0.018   0.000   25.1    48   13.3   24.9   8.91  .0736    117    1    100.0    5 
22/08/19   7:00   13.1   13.1   13.1    86   10.8   0.0   ---   0.00   0.0   ---   13.1   13.1   13.1  1024.6  0.00  0.00   0.018   0.000   25.0    48   13.2   24.8   8.91  .0737    117    1    100.0    5 
22/08/19   7:05   13.2   13.2   13.1    86   10.9   0.0   ---   0.00   0.0   ---   13.2   13.1   13.1  1024.6  0.00  0.00   0.018   0.000   25.0    48   13.2   24.8   8.91  .0737    114    1    100.0    5 
22/08/19   7:10   13.3   13.3   13.2    86   11.0   0.0   ---   0.00   0.0   ---   13.3   13.2   13.2  1024.6  0.00  0.00   0.018   0.000   25.0    48   13.2   24.8   8.91  .0737    116    1    100.0    5 
22/08/19   7:15   13.4   13.4   13.3    86   11.1   0.0   ---   0.00   0.0   ---   13.4   13.3   13.3  1024.7  0.00  0.00   0.017   0.000   25.0    48   13.2   24.8   8.91  .0737    115    1    100.0    5 
22/08/19   7:20   13.5   13.5   13.4    86   11.2   0.0   ---   0.00   0.0   ---   13.5   13.4   13.4  1024.7  0.00  0.00   0.017   0.000   25.0    48   13.2   24.8   8.91  .0737    116    1    100.0    5 
22/08/19   7:25   13.6   13.6   13.5    86   11.3   0.0   ---   0.00   0.0   ---   13.6   13.6   13.6  1024.7  0.00  0.00   0.016   0.000   25.0    48   13.2   24.8   8.91  .0737    117    1    100.0    5 
22/08/19   7:30   13.7   13.7   13.6    86   11.4   0.0   ---   0.00   0.0   ---   13.7   13.7   13.7  1024.7  0.00  0.00   0.016   0.000   25.0    48   13.2   24.8   8.91  .0737    117    1    100.0    5 
22/08/19   7:35   13.9   13.9   13.7    86   11.6   0.0   ---   0.00   0.0   ---   13.9   13.8   13.8  1024.7  0.00  0.00   0.015   0.000   25.0    49   13.5   24.8   9.01  .0737    117    1    100.0    5 
22/08/19   7:40   14.1   14.1   13.9    86   11.7   0.0   ---   0.00   0.0   ---   14.1   14.0   14.0  1024.8  0.00  0.00   0.015   0.000   25.0    49   13.5   24.8   9.01  .0737    117    1    100.0    5 
22/08/19   7:45   14.3   14.3   14.1    86   12.0   0.0   ---   0.00   0.0   ---   14.3   14.2   14.2  1024.8  0.00  0.00   0.014   0.000   25.1    49   13.6   24.9   9.01  .0736    117    1    100.0    5 
22/08/19   7:50   14.4   14.4   14.2    86   12.1   0.0   ---   0.00   0.0   ---   14.4   14.4   14.4  1024.8  0.00  0.00   0.014   0.000   25.1    48   13.3   24.9   8.91  .0737    117    1    100.0    5 
22/08/19   7:55   14.6   14.6   14.4    86   12.3   0.0   ---   0.00   0.0   ---   14.6   14.6   14.6  1024.8  0.00  0.00   0.013   0.000   25.2    48   13.4   25.0   8.90  .0736    116    1    100.0    5 
22/08/19   8:00   14.8   14.8   14.6    86   12.5   0.0   ---   0.00   0.0   ---   14.8   14.8   14.8  1024.8  0.00  0.00   0.012   0.000   25.2    48   13.4   25.1   8.90  .0736    118    1    100.0    5 
22/08/19   8:05   14.8   14.8   14.8    86   12.5   0.0   ---   0.00   0.0   ---   14.8   14.8   14.8  1024.8  0.00  0.00   0.012   0.000   25.2    48   13.4   25.1   8.90  .0736    117    1    100.0    5 
22/08/19   8:10   15.0   15.0   14.9    86   12.7   0.0   ---   0.00   0.0   ---   15.0   15.0   15.0  1024.8  0.00  0.00   0.012   0.000   25.2    48   13.4   25.0   8.90  .0736    117    1    100.0    5 
22/08/19   8:15   15.2   15.2   15.0    86   12.9   0.0   ---   0.00   0.0   ---   15.2   15.3   15.3  1024.8  0.00  0.00   0.011   0.000   25.2    48   13.4   25.0   8.90  .0736    116    1    100.0    5 
22/08/19   8:20   15.4   15.4   15.3    86   13.1   0.0   ---   0.00   0.0   ---   15.4   15.4   15.4  1024.9  0.00  0.00   0.010   0.000   25.2    49   13.7   25.1   9.00  .0736    117    1    100.0    5 
22/08/19   8:25   15.6   15.6   15.4    86   13.2   0.0   ---   0.00   0.0   ---   15.6   15.6   15.6  1024.8  0.00  0.00   0.010   0.000   25.2    49   13.7   25.1   9.00  .0736    116    1    100.0    5 
22/08/19   8:30   15.8   15.8   15.6    86   13.4   0.0   ---   0.00   0.0   ---   15.8   15.9   15.9  1024.9  0.00  0.00   0.009   0.000   25.2    49   13.7   25.1   9.00  .0736    117    1    100.0    5 
22/08/19   8:35   15.9   15.9   15.8    86   13.6   0.0   ---   0.00   0.0   ---   15.9   16.1   16.1  1024.9  0.00  0.00   0.008   0.000   25.1    49   13.6   25.0   9.01  .0736    117    1    100.0    5 
22/08/19   8:40   16.2   16.2   15.9    85   13.6   0.0   ---   0.00   0.0   ---   16.2   16.3   16.3  1024.9  0.00  0.00   0.008   0.000   25.1    49   13.6   25.0   9.01  .0736    117    1    100.0    5 
22/08/19   8:45   16.2   16.2   16.1    85   13.6   2.0   WSW   0.17   4.0   WSW   16.2   16.3   16.3  1024.9  0.00  0.00   0.008   0.000   25.2    49   13.7   25.1   9.00  .0736    116    1    100.0    5 
22/08/19   8:50   16.3   16.3   16.2    85   13.8   3.0   WSW   0.25   5.0   WSW   16.3   16.4   16.4  1024.9  0.00  0.00   0.007   0.000   25.2    49   13.7   25.1   9.00  .0736    117    1    100.0    5 
22/08/19   8:55   16.6   16.6   16.3    85   14.0   3.0   WSW   0.25   5.0   WSW   16.6   16.7   16.7  1024.9  0.00  0.00   0.006   0.000   25.2    49   13.7   25.1   9.00  .0736    117    1    100.0    5 
22/08/19   9:00   16.7   16.7   16.6    84   13.9   3.0   WSW   0.25   7.0   WSW   16.7   16.8   16.8  1024.8  0.00  0.00   0.006   0.000   25.2    49   13.7   25.1   9.00  .0736    116    1    100.0    5 
22/08/19   9:05   16.6   16.7   16.6    84   13.9   4.0   WSW   0.33   6.0   WSW   16.6   16.8   16.8  1024.9  0.00  0.00   0.006   0.000   25.2    49   13.7   25.1   9.00  .0736    117    1    100.0    5 
22/08/19   9:10   16.8   16.8   16.6    84   14.1   4.0   WSW   0.33   7.0   WSW   16.8   16.9   16.9  1025.0  0.00  0.00   0.005   0.000   25.2    49   13.7   25.1   9.00  .0736    115    1    100.0    5 
22/08/19   9:15   16.8   16.8   16.8    83   13.9   5.0   WSW   0.42   7.0   WSW   16.8   17.0   17.0  1024.9  0.00  0.00   0.005   0.000   25.2    49   13.7   25.1   9.00  .0736    117    1    100.0    5 
22/08/19   9:20   16.9   16.9   16.8    83   14.0   4.0    SW   0.33   7.0   WSW   16.9   17.1   17.1  1024.9  0.00  0.00   0.005   0.000   25.2    49   13.7   25.1   9.00  .0736    117    1    100.0    5 
22/08/19   9:25   16.9   16.9   16.8    82   13.8   4.0    SW   0.33   7.0    SW   16.9   17.1   17.1  1024.9  0.00  0.00   0.005   0.000   25.3    49   13.8   25.2   9.00  .0736    117    1    100.0    5 
22/08/19   9:30   17.1   17.1   16.9    83   14.2   4.0   WSW   0.33   6.0   WSW   17.1   17.3   17.3  1025.0  0.00  0.00   0.004   0.000   25.3    49   13.8   25.2   9.00  .0736    117    1    100.0    5 
22/08/19   9:35   17.2   17.2   17.1    82   14.1   5.0   WSW   0.42   7.0   WSW   17.2   17.4   17.4  1025.0  0.00  0.00   0.004   0.000   25.3    49   13.8   25.2   9.00  .0736    117    1    100.0    5 
22/08/19   9:40   17.3   17.3   17.2    82   14.2   5.0    SW   0.42   8.0   WSW   17.3   17.5   17.5  1025.0  0.00  0.00   0.004   0.000   25.3    49   13.8   25.2   9.00  .0736    115    1    100.0    5 
22/08/19   9:45   17.4   17.4   17.3    81   14.1   5.0    SW   0.42   8.0   WSW   17.4   17.6   17.6  1025.1  0.00  0.00   0.003   0.000   25.3    49   13.8   25.2   9.00  .0736    114    1    100.0    5 
22/08/19   9:50   17.6   17.6   17.4    81   14.3   7.0    SW   0.58  10.0   WSW   17.6   17.9   17.9  1025.1  0.00  0.00   0.003   0.000   25.4    49   13.9   25.3   9.00  .0736    115    1    100.0    5 
22/08/19   9:55   17.8   17.8   17.5    80   14.3   8.0    SW   0.67  12.0    SW   17.4   18.1   17.7  1025.1  0.00  0.00   0.002   0.000   25.4    49   13.9   25.3   9.00  .0736    117    1    100.0    5 
22/08/19  10:00   17.9   17.9   17.8    78   14.1  10.0   WSW   0.83  14.0   WSW   16.7   18.2   16.9  1025.1  0.00  0.00   0.001   0.000   25.4    49   13.9   25.3   9.00  .0736    117    1    100.0    5 
22/08/19  10:05   18.0   18.0   17.9    77   13.9  12.0   WSW   1.00  15.0   WSW   16.0   18.2   16.2  1025.1  0.00  0.00   0.001   0.000   25.4    49   13.9   25.4   8.99  .0735    117    1    100.0    5 
22/08/19  10:10   18.2   18.2   18.0    77   14.1  10.0    SW   0.83  13.0   WSW   16.9   18.4   17.1  1025.1  0.00  0.00   0.001   0.000   25.4    50   14.3   25.4   9.19  .0735    117    1    100.0    5 
22/08/19  10:15   18.2   18.2   18.1    77   14.1  12.0   WSW   1.00  15.0    SW   16.3   18.4   16.5  1025.1  0.00  0.00   0.000   0.000   25.4    49   13.9   25.4   8.99  .0735    116    1    100.0    5 
22/08/19  10:20   18.3   18.3   18.2    76   14.0  12.0   WSW   1.00  15.0   WSW   16.3   18.5   16.6  1025.2  0.00  0.00   0.000   0.000   25.5    49   14.0   25.4   8.99  .0735    115    1    100.0    5 
22/08/19  10:25   18.5   18.5   18.3    77   14.4  10.0   WSW   0.83  13.0    SW   17.3   18.8   17.6  1025.2  0.00  0.00   0.000   0.001   25.5    50   14.3   25.5   9.19  .0735    117    1    100.0    5 
22/08/19  10:30   18.6   18.6   18.4    77   14.4  10.0    SW   0.83  13.0   WSW   17.4   18.8   17.7  1025.2  0.00  0.00   0.000   0.001   25.6    50   14.4   25.6   9.19  .0735    117    1    100.0    5 
22/08/19  10:35   18.4   18.5   18.4    77   14.3   9.0    SW   0.75  13.0    SW   17.7   18.7   17.9  1025.3  0.00  0.00   0.000   0.000   25.6    50   14.4   25.6   9.19  .0735    117    1    100.0    5 
22/08/19  10:40   18.4   18.5   18.3    77   14.3  11.0   WSW   0.92  13.0   WSW   16.8   18.7   17.1  1025.3  0.00  0.00   0.000   0.000   25.6    50   14.4   25.6   9.19  .0735    116    1    100.0    5 
22/08/19  10:45   18.3   18.4   18.3    77   14.2  11.0    SW   0.92  13.0   WSW   16.7   18.6   17.0  1025.2  0.00  0.00   0.000   0.000   25.6    50   14.4   25.6   9.19  .0735    117    1    100.0    5 
22/08/19  10:50   18.6   18.6   18.3    77   14.4  10.0   WSW   0.83  14.0    SW   17.4   18.8   17.7  1025.2  0.00  0.00   0.000   0.001   25.6    50   14.4   25.6   9.19  .0735    116    1    100.0    5 
22/08/19  10:55   18.6   18.6   18.5    77   14.4  11.0    SW   0.92  14.0    SW   17.0   18.8   17.3  1025.3  0.00  0.00   0.000   0.001   25.7    50   14.5   25.7   9.19  .0735    117    1    100.0    5 
22/08/19  11:00   18.5   18.6   18.5    76   14.2  11.0    SW   0.92  14.0   WSW   16.9   18.7   17.2  1025.2  0.00  0.00   0.000   0.001   25.7    50   14.5   25.7   9.19  .0735    117    1    100.0    5 
22/08/19  11:05   18.7   18.7   18.4    76   14.4  11.0    SW   0.92  14.0   WSW   17.2   19.0   17.4  1025.2  0.00  0.00   0.000   0.001   25.7    50   14.5   25.8   9.18  .0734    116    1    100.0    5 
22/08/19  11:10   18.7   18.7   18.6    76   14.3  12.0    SW   1.00  15.0   WSW   16.8   18.9   17.1  1025.3  0.00  0.00   0.000   0.001   25.7    50   14.5   25.8   9.18  .0734    117    1    100.0    5 
22/08/19  11:15   18.8   18.9   18.7    75   14.3  11.0    SW   0.92  14.0    SW   17.3   19.1   17.6  1025.3  0.00  0.00   0.000   0.002   25.8    50   14.6   25.8   9.18  .0734    117    1    100.0    5 
22/08/19  11:20   18.8   18.8   18.8    76   14.5  12.0    SW   1.00  14.0    SW   16.9   19.1   17.2  1025.2  0.00  0.00   0.000   0.002   25.8    50   14.6   25.8   9.18  .0734    116    1    100.0    5 
22/08/19  11:25   18.8   18.9   18.8    76   14.5  11.0    SW   0.92  13.0    SW   17.3   19.2   17.7  1025.2  0.00  0.00   0.000   0.002   25.8    50   14.6   25.9   9.18  .0734    117    1    100.0    5 
22/08/19  11:30   18.8   18.9   18.8    75   14.3  12.0    SW   1.00  15.0    SW   16.9   19.1   17.2  1025.2  0.00  0.00   0.000   0.002   25.9    50   14.7   25.9   9.18  .0734    117    1    100.0    5 
22/08/19  11:35   18.8   18.8   18.7    75   14.3  12.0    SW   1.00  14.0    SW   16.9   19.1   17.2  1025.1  0.00  0.00   0.000   0.002   25.9    50   14.7   25.9   9.18  .0734    117    1    100.0    5 
22/08/19  11:40   18.9   18.9   18.8    75   14.4  11.0    SW   0.92  15.0    SW   17.4   19.2   17.7  1025.2  0.00  0.00   0.000   0.002   25.9    50   14.7   26.0   9.18  .0734    117    1    100.0    5 
22/08/19  11:45   18.9   19.0   18.9    74   14.2  12.0    SW   1.00  15.0    SW   17.1   19.2   17.3  1025.1  0.00  0.00   0.000   0.002   25.9    50   14.7   26.0   9.18  .0734    117    1    100.0    5 
22/08/19  11:50   19.1   19.1   18.9    76   14.7  11.0    SW   0.92  15.0    SW   17.6   19.4   17.9  1025.1  0.00  0.00   0.000   0.003   26.0    50   14.8   26.1   9.17  .0733    117    1    100.0    5 
22/08/19  11:55   19.1   19.1   19.1    75   14.5  12.0    SW   1.00  15.0    SW   17.2   19.4   17.6  1025.0  0.00  0.00   0.000   0.003   26.1    50   14.8   26.2   9.17  .0733    117    1    100.0    5 
22/08/19  12:00   19.1   19.1   19.0    75   14.6  12.0    SW   1.00  16.0   SSW   17.3   19.4   17.6  1025.0  0.00  0.00   0.000   0.003   26.1    50   14.9   26.2   9.17  .0733    115    1    100.0    5 
22/08/19  12:05   18.9   19.1   18.9    75   14.4  12.0    SW   1.00  16.0    SW   17.1   19.2   17.3  1025.0  0.00  0.00   0.000   0.002   26.1    50   14.9   26.2   9.17  .0733    115    1    100.0    5 
22/08/19  12:10   18.9   19.0   18.8    75   14.4  12.0    SW   1.00  15.0    SW   17.1   19.2   17.3  1025.0  0.00  0.00   0.000   0.002   26.2    50   14.9   26.3   9.17  .0733    118    1    100.0    5 
22/08/19  12:15   19.1   19.1   18.9    76   14.7  13.0    SW   1.08  16.0    SW   16.9   19.4   17.3  1025.0  0.00  0.00   0.000   0.003   26.2    50   14.9   26.3   9.17  .0733    115    1    100.0    5 
22/08/19  12:20   19.1   19.2   19.1    75   14.5  13.0    SW   1.08  15.0    SW   16.9   19.4   17.3  1025.0  0.00  0.00   0.000   0.003   26.2    50   15.0   26.3   9.17  .0733    115    1    100.0    5 
22/08/19  12:25   18.9   19.1   18.9    74   14.2  14.0    SW   1.17  16.0    SW   16.6   19.2   16.8  1025.0  0.00  0.00   0.000   0.002   26.3    50   15.0   26.4   9.16  .0732    117    1    100.0    5 
22/08/19  12:30   19.1   19.1   18.9    76   14.8  14.0    SW   1.17  18.0    SW   16.8   19.5   17.2  1024.9  0.00  0.00   0.000   0.003   26.3    50   15.1   26.4   9.16  .0732    117    1    100.0    5 
22/08/19  12:35   18.8   19.1   18.8    75   14.3  14.0    SW   1.17  18.0    SW   16.4   19.1   16.7  1024.9  0.00  0.00   0.000   0.002   26.3    50   15.1   26.4   9.16  .0732    116    1    100.0    5 
22/08/19  12:40   18.8   18.8   18.7    76   14.5  14.0    SW   1.17  17.0    SW   16.4   19.2   16.8  1025.0  0.00  0.00   0.000   0.002   26.4    50   15.1   26.4   9.16  .0732    117    1    100.0    5 
22/08/19  12:45   18.9   19.0   18.8    76   14.6  13.0    SW   1.08  16.0    SW   16.8   19.3   17.1  1025.0  0.00  0.00   0.000   0.002   26.4    50   15.2   26.5   9.16  .0732    117    1    100.0    5 
22/08/19  12:50   18.9   18.9   18.8    76   14.6  14.0    SW   1.17  17.0    SW   16.6   19.3   16.9  1025.0  0.00  0.00   0.000   0.002   26.4    50   15.2   26.5   9.16  .0732    117    1    100.0    5 
22/08/19  12:55   19.1   19.1   18.9    76   14.7  13.0    SW   1.08  17.0    SW   16.9   19.4   17.3  1025.0  0.00  0.00   0.000   0.003   26.5    50   15.2   26.6   9.16  .0732    117    1    100.0    5 
22/08/19  13:00   18.9   19.1   18.9    76   14.6  13.0    SW   1.08  16.0    SW   16.7   19.2   17.1  1025.1  0.00  0.00   0.000   0.002   26.6    50   15.3   26.6   9.15  .0732    115    1    100.0    5 
22/08/19  13:05   18.9   19.0   18.9    76   14.6  13.0    SW   1.08  17.0    SW   16.8   19.3   17.1  1025.0  0.00  0.00   0.000   0.002   26.6    50   15.3   26.6   9.15  .0732    116    1    100.0    5 
22/08/19  13:10   19.1   19.1   18.9    76   14.7  12.0    SW   1.00  16.0    SW   17.2   19.4   17.6  1025.1  0.00  0.00   0.000   0.003   26.6    50   15.3   26.7   9.15  .0731    117    1    100.0    5 
22/08/19  13:15   19.0   19.1   18.9    76   14.7  14.0    SW   1.17  16.0    SW   16.6   19.3   16.9  1025.1  0.00  0.00   0.000   0.002   26.7    50   15.4   26.7   9.15  .0731    118    1    100.0    5 
22/08/19  13:20   18.9   19.1   18.9    76   14.6  15.0    SW   1.25  18.0    SW   16.4   19.3   16.7  1025.1  0.00  0.00   0.000   0.002   26.7    50   15.4   26.7   9.15  .0731    117    1    100.0    5 
22/08/19  13:25   19.1   19.2   18.9    77   15.0  14.0    SW   1.17  17.0    SW   16.8   19.5   17.2  1025.0  0.00  0.00   0.000   0.003   26.7    50   15.4   26.8   9.15  .0731    117    1    100.0    5 
22/08/19  13:30   18.9   19.1   18.9    76   14.6  14.0    SW   1.17  16.0    SW   16.6   19.3   16.9  1025.0  0.00  0.00   0.000   0.002   26.8    50   15.5   26.8   9.15  .0731    117    1    100.0    5 
22/08/19  13:35   19.0   19.1   18.9    76   14.7  13.0    SW   1.08  18.0    SW   16.8   19.3   17.2  1025.1  0.00  0.00   0.000   0.002   26.8    50   15.5   26.8   9.15  .0731    117    1    100.0    5 
22/08/19  13:40   19.1   19.1   18.9    77   14.9  14.0    SW   1.17  17.0    SW   16.7   19.4   17.1  1025.0  0.00  0.00   0.000   0.003   26.8    50   15.5   26.9   9.14  .0731    117    1    100.0    5 
22/08/19  13:45   18.8   19.1   18.8    76   14.5  14.0    SW   1.17  18.0    SW   16.4   19.2   16.8  1025.0  0.00  0.00   0.000   0.002   26.8    50   15.5   26.9   9.14  .0731    116    1    100.0    5 
22/08/19  13:50   18.8   18.9   18.8    76   14.5  14.0    SW   1.17  19.0    SW   16.4   19.2   16.8  1025.0  0.00  0.00   0.000   0.002   26.9    50   15.6   26.9   9.14  .0731    117    1    100.0    5 
22/08/19  13:55   19.0   19.1   18.8    75   14.5  14.0    SW   1.17  17.0    SW   16.6   19.3   16.9  1024.9  0.00  0.00   0.000   0.002   26.9    50   15.6   27.0   9.14  .0730    116    1    100.0    5 
22/08/19  14:00   19.1   19.1   19.0    74   14.3  14.0    SW   1.17  18.0    SW   16.7   19.3   17.0  1024.9  0.00  0.00   0.000   0.003   27.0    50   15.7   27.1   9.14  .0730    117    1    100.0    5 
22/08/19  14:05   19.1   19.1   19.1    75   14.5  14.0    SW   1.17  17.0    SW   16.7   19.4   17.1  1025.0  0.00  0.00   0.000   0.003   27.1    50   15.7   27.2   9.14  .0730    117    1    100.0    5 
22/08/19  14:10   19.1   19.2   19.1    75   14.6  15.0    SW   1.25  18.0    SW   16.6   19.4   16.9  1024.9  0.00  0.00   0.000   0.003   27.1    50   15.8   27.2   9.13  .0730    117    1    100.0    5 
22/08/19  14:15   19.0   19.1   19.0    74   14.3  15.0    SW   1.25  18.0    SW   16.4   19.3   16.7  1024.9  0.00  0.00   0.000   0.002   27.2    50   15.9   27.3   9.13  .0729    117    1    100.0    5 
22/08/19  14:20   19.2   19.2   19.0    74   14.4  13.0    SW   1.08  16.0    SW   17.1   19.4   17.3  1024.9  0.00  0.00   0.000   0.003   27.3    50   15.9   27.4   9.13  .0729    117    1    100.0    5 
22/08/19  14:25   19.1   19.2   19.0    75   14.5  14.0    SW   1.17  17.0    SW   16.7   19.4   17.1  1024.9  0.00  0.00   0.000   0.003   27.3    50   16.0   27.5   9.13  .0729    117    1    100.0    5 
22/08/19  14:30   19.1   19.1   19.1    74   14.3  13.0    SW   1.08  17.0    SW   16.9   19.3   17.2  1025.0  0.00  0.00   0.000   0.003   27.4    50   16.0   27.6   9.12  .0729    117    1    100.0    5 
22/08/19  14:35   19.1   19.1   19.0    75   14.6  13.0    SW   1.08  16.0    SW   17.0   19.4   17.3  1024.9  0.00  0.00   0.000   0.003   27.4    49   15.8   27.6   8.92  .0729    116    1    100.0    5 
22/08/19  14:40   19.2   19.2   19.1    74   14.4  13.0    SW   1.08  16.0    SW   17.1   19.4   17.3  1024.9  0.00  0.00   0.000   0.003   27.5    49   15.8   27.7   8.92  .0729    117    1    100.0    5 
22/08/19  14:45   19.1   19.2   19.1    73   14.2  14.0    SW   1.17  17.0    SW   16.8   19.4   17.1  1025.0  0.00  0.00   0.000   0.003   27.6    49   15.9   27.8   8.92  .0728    116    1    100.0    5 
22/08/19  14:50   19.2   19.2   19.1    74   14.4  14.0    SW   1.17  17.0    SW   16.8   19.4   17.1  1024.9  0.00  0.00   0.000   0.003   27.7    49   16.0   27.9   8.91  .0728    116    1    100.0    5 
22/08/19  14:55   19.2   19.2   19.1    73   14.3  14.0    SW   1.17  18.0    SW   16.9   19.5   17.2  1024.9  0.00  0.00   0.000   0.003   27.7    49   16.0   27.9   8.91  .0728    117    1    100.0    5 
22/08/19  15:00   19.3   19.3   19.2    73   14.4  13.0    SW   1.08  16.0    SW   17.3   19.6   17.6  1024.8  0.00  0.00   0.000   0.003   27.8    49   16.1   28.1   8.91  .0728    116    1    100.0    5 
22/08/19  15:05   19.2   19.4   19.2    73   14.3  14.0    SW   1.17  17.0    SW   16.9   19.5   17.2  1024.8  0.00  0.00   0.000   0.003   27.8    49   16.1   28.1   8.91  .0728    116    1    100.0    5 
22/08/19  15:10   19.3   19.3   19.2    73   14.3  14.0    SW   1.17  16.0    SW   16.9   19.6   17.2  1024.7  0.00  0.00   0.000   0.003   27.9    49   16.2   28.2   8.91  .0727    117    1    100.0    5 
22/08/19  15:15   19.3   19.3   19.2    73   14.3  15.0    SW   1.25  17.0    SW   16.8   19.6   17.1  1024.7  0.00  0.00   0.000   0.003   27.9    49   16.2   28.3   8.90  .0727    116    1    100.0    5 
22/08/19  15:20   19.2   19.3   19.2    73   14.2  14.0    SW   1.17  18.0    SW   16.8   19.4   17.1  1024.7  0.00  0.00   0.000   0.003   28.0    49   16.3   28.4   8.90  .0727    116    1    100.0    5 
22/08/19  15:25   19.3   19.3   19.2    73   14.4  13.0    SW   1.08  17.0    SW   17.3   19.6   17.6  1024.7  0.00  0.00   0.000   0.003   28.0    49   16.3   28.4   8.90  .0727    115    1    100.0    5 
22/08/19  15:30   19.3   19.3   19.3    73   14.3  14.0    SW   1.17  17.0    SW   16.9   19.6   17.2  1024.6  0.00  0.00   0.000   0.003   28.1    48   16.0   28.4   8.80  .0727    117    1    100.0    5 
22/08/19  15:35   19.4   19.4   19.3    74   14.6  12.0    SW   1.00  17.0    SW   17.6   19.7   17.9  1024.6  0.00  0.00   0.000   0.004   28.1    48   16.1   28.5   8.80  .0727    117    1    100.0    5 
22/08/19  15:40   19.5   19.5   19.3    74   14.7  13.0    SW   1.08  17.0    SW   17.4   19.9   17.8  1024.5  0.00  0.00   0.000   0.004   28.2    48   16.1   28.6   8.80  .0727    117    1    100.0    5 
22/08/19  15:45   19.3   19.6   19.3    73   14.3  14.0    SW   1.17  17.0    SW   16.9   19.6   17.2  1024.5  0.00  0.00   0.000   0.003   28.2    48   16.1   28.6   8.80  .0727    117    1    100.0    5 
22/08/19  15:50   19.3   19.3   19.2    74   14.5  14.0    SW   1.17  17.0    SW   16.9   19.6   17.3  1024.5  0.00  0.00   0.000   0.003   28.2    48   16.2   28.7   8.79  .0726    117    1    100.0    5 
22/08/19  15:55   19.3   19.3   19.2    73   14.3  14.0    SW   1.17  18.0    SW   16.9   19.6   17.2  1024.6  0.00  0.00   0.000   0.003   28.2    48   16.2   28.7   8.79  .0726    117    1    100.0    5 
22/08/19  16:00   19.2   19.3   19.2    73   14.2  15.0    SW   1.25  18.0    SW   16.7   19.4   16.9  1024.5  0.00  0.00   0.000   0.003   28.2    48   16.2   28.7   8.79  .0726    117    1    100.0    5 
22/08/19  16:05   19.3   19.4   19.2    75   14.8  13.0    SW   1.08  17.0    SW   17.3   19.7   17.7  1024.4  0.00  0.00   0.000   0.003   28.3    48   16.2   28.8   8.79  .0726    117    1    100.0    5 
22/08/19  16:10   19.3   19.3   19.2    75   14.7  13.0    SW   1.08  17.0    SW   17.2   19.6   17.5  1024.5  0.00  0.00   0.000   0.003   28.3    48   16.2   28.8   8.79  .0726    117    1    100.0    5 
22/08/19  16:15   19.3   19.3   19.2    75   14.7  13.0    SW   1.08  16.0    SW   17.2   19.6   17.5  1024.5  0.00  0.00   0.000   0.003   28.3    48   16.2   28.8   8.79  .0726    116    1    100.0    5 
22/08/19  16:20   19.3   19.3   19.2    75   14.7  13.0    SW   1.08  17.0    SW   17.2   19.6   17.5  1024.5  0.00  0.00   0.000   0.003   28.3    48   16.2   28.8   8.79  .0726    116    1    100.0    5 
22/08/19  16:25   19.3   19.3   19.3    75   14.7  13.0    SW   1.08  17.0    SW   17.2   19.6   17.5  1024.5  0.00  0.00   0.000   0.003   28.3    48   16.3   28.8   8.79  .0726    116    1    100.0    5 
22/08/19  16:30   19.3   19.3   19.3    76   15.0  14.0    SW   1.17  16.0    SW   17.1   19.7   17.4  1024.4  0.00  0.00   0.000   0.003   28.3    48   16.3   28.8   8.79  .0726    117    1    100.0    5 
22/08/19  16:35   19.3   19.3   19.2    76   15.0  13.0    SW   1.08  17.0    SW   17.3   19.7   17.7  1024.5  0.00  0.00   0.000   0.003   28.3    48   16.3   28.8   8.79  .0726    116    1    100.0    5 
22/08/19  16:40   19.3   19.3   19.2    76   14.9  14.0    SW   1.17  17.0    SW   16.9   19.7   17.3  1024.5  0.00  0.00   0.000   0.003   28.3    48   16.3   28.8   8.79  .0726    117    1    100.0    5 
22/08/19  16:45   19.3   19.3   19.2    76   14.9  13.0    SW   1.08  16.0    SW   17.2   19.7   17.6  1024.4  0.00  0.00   0.000   0.003   28.3    48   16.3   28.8   8.79  .0726    117    1    100.0    5 
22/08/19  16:50   19.0   19.3   19.0    76   14.7  14.0    SW   1.17  17.0    SW   16.6   19.3   16.9  1024.4  0.00  0.00   0.000   0.002   28.4    48   16.3   28.9   8.79  .0726    117    1    100.0    5 
22/08/19  16:55   19.0   19.1   19.0    75   14.5  14.0    SW   1.17  17.0    SW   16.6   19.3   16.9  1024.4  0.00  0.00   0.000   0.002   28.3    48   16.3   28.8   8.79  .0726    117    1    100.0    5 
22/08/19  17:00   19.1   19.1   19.0    76   14.7  14.0    SW   1.17  18.0    SW   16.7   19.4   17.1  1024.4  0.00  0.00   0.000   0.003   28.4    48   16.3   28.9   8.79  .0726    115    1    100.0    5 
22/08/19  17:05   19.1   19.1   19.1    76   14.8  13.0    SW   1.08  16.0    SW   17.0   19.5   17.4  1024.4  0.00  0.00   0.000   0.003   28.4    48   16.3   28.9   8.79  .0726    117    1    100.0    5 
22/08/19  17:10   19.1   19.2   19.1    76   14.8  13.0    SW   1.08  16.0    SW   17.0   19.5   17.4  1024.4  0.00  0.00   0.000   0.003   28.4    48   16.3   28.9   8.79  .0726    117    1    100.0    5 
22/08/19  17:15   19.1   19.2   19.0    76   14.7  14.0    SW   1.17  18.0    SW   16.7   19.4   17.1  1024.4  0.00  0.00   0.000   0.003   28.4    48   16.4   29.0   8.79  .0726    117    1    100.0    5 
22/08/19  17:20   19.0   19.1   19.0    76   14.7  14.0    SW   1.17  17.0    SW   16.6   19.3   16.9  1024.4  0.00  0.00   0.000   0.002   28.4    48   16.4   29.0   8.79  .0726    115    1    100.0    5 
22/08/19  17:25   19.1   19.1   19.1    76   14.7  14.0    SW   1.17  16.0    SW   16.7   19.4   17.1  1024.3  0.00  0.00   0.000   0.003   28.4    48   16.4   29.0   8.79  .0726    118    1    100.0    5 
22/08/19  17:30   19.1   19.1   19.0    76   14.7  13.0    SW   1.08  18.0   WSW   16.9   19.4   17.3  1024.3  0.00  0.00   0.000   0.003   28.4    48   16.4   29.0   8.79  .0726    117    1    100.0    5 
22/08/19  17:35   19.1   19.1   19.1    76   14.8  14.0   WSW   1.17  18.0   WSW   16.8   19.5   17.2  1024.2  0.00  0.00   0.000   0.003   28.4    48   16.4   29.0   8.79  .0726    117    1    100.0    5 
22/08/19  17:40   19.1   19.2   19.1    77   15.0  13.0   WSW   1.08  16.0    SW   17.0   19.5   17.4  1024.1  0.00  0.00   0.000   0.003   28.4    48   16.4   29.0   8.79  .0725    117    1    100.0    5 
22/08/19  17:45   19.1   19.2   19.1    77   14.9  12.0   WSW   1.00  15.0   WSW   17.2   19.4   17.6  1024.1  0.00  0.00   0.000   0.003   28.4    48   16.4   29.0   8.79  .0725    117    1    100.0    5 
22/08/19  17:50   19.2   19.2   19.1    77   15.0  12.0    SW   1.00  16.0   WSW   17.3   19.6   17.8  1024.1  0.00  0.00   0.000   0.003   28.4    48   16.4   29.0   8.79  .0725    117    1    100.0    5 
22/08/19  17:55   19.1   19.2   19.0    77   15.0  12.0   WSW   1.00  15.0   WSW   17.3   19.5   17.7  1024.1  0.00  0.00   0.000   0.003   28.4    48   16.4   29.0   8.79  .0725    117    1    100.0    5 
22/08/19  18:00   19.1   19.2   19.1    77   14.9  13.0   WSW   1.08  16.0   WSW   16.9   19.4   17.3  1024.0  0.00  0.00   0.000   0.003   28.4    48   16.4   29.0   8.79  .0725    115    1    100.0    5 
22/08/19  18:05   19.1   19.1   19.1    77   14.9  13.0   WSW   1.08  16.0   WSW   16.9   19.4   17.3  1024.0  0.00  0.00   0.000   0.003   28.5    48   16.4   29.1   8.78  .0725    117    1    100.0    5 
22/08/19  18:10   19.1   19.1   19.1    77   14.9  13.0   WSW   1.08  16.0   WSW   16.9   19.4   17.3  1023.9  0.00  0.00   0.000   0.003   28.4    48   16.4   29.0   8.79  .0725    117    1    100.0    5 
22/08/19  18:15   18.9   19.1   18.9    77   14.8  14.0   WSW   1.17  15.0   WSW   16.6   19.3   16.9  1023.9  0.00  0.00   0.000   0.002   28.4    48   16.4   29.0   8.79  .0725    117    1    100.0    5 
22/08/19  18:20   19.0   19.0   18.9    78   15.1  13.0   WSW   1.08  15.0   WSW   16.8   19.4   17.3  1023.9  0.00  0.00   0.000   0.002   28.5    48   16.4   29.1   8.78  .0725    117    1    100.0    5 
22/08/19  18:25   18.9   19.0   18.9    78   15.0  12.0   WSW   1.00  15.0   WSW   17.1   19.4   17.5  1023.9  0.00  0.00   0.000   0.002   28.5    48   16.4   29.1   8.78  .0725    116    1    100.0    5 
22/08/19  18:30   19.1   19.1   18.9    78   15.1  11.0   WSW   0.92  15.0   WSW   17.6   19.5   18.0  1023.9  0.00  0.00   0.000   0.003   28.5    48   16.4   29.1   8.78  .0725    118    1    100.0    5 
22/08/19  18:35   19.1   19.1   19.0    78   15.2  11.0   WSW   0.92  14.0   WSW   17.6   19.6   18.1  1023.9  0.00  0.00   0.000   0.003   28.4    48   16.4   29.0   8.79  .0725    117    1    100.0    5 
22/08/19  18:40   19.1   19.1   19.1    78   15.1  11.0   WSW   0.92  15.0   WSW   17.6   19.5   18.0  1023.9  0.00  0.00   0.000   0.003   28.4    48   16.4   29.0   8.79  .0725    114    1    100.0    5 
22/08/19  18:45   18.9   19.1   18.9    79   15.2  12.0    SW   1.00  15.0    SW   17.1   19.4   17.5  1023.9  0.00  0.00   0.000   0.002   28.4    48   16.4   29.0   8.79  .0725    116    1    100.0    5 
22/08/19  18:50   18.9   18.9   18.9    79   15.2  11.0   WSW   0.92  14.0   WSW   17.4   19.4   17.9  1024.0  0.00  0.00   0.000   0.002   28.4    48   16.4   29.0   8.79  .0725    117    1    100.0    5 
22/08/19  18:55   18.8   18.9   18.8    79   15.1  12.0   WSW   1.00  15.0   WSW   16.9   19.3   17.4  1024.0  0.00  0.00   0.000   0.002   28.4    48   16.4   29.0   8.79  .0725    117    1    100.0    5 
22/08/19  19:00   18.8   18.8   18.8    79   15.1  12.0   WSW   1.00  15.0   WSW   16.9   19.2   17.3  1024.0  0.00  0.00   0.000   0.002   28.4    48   16.4   29.0   8.79  .0725    116    1    100.0    5 
22/08/19  19:05   18.7   18.8   18.7    79   14.9  12.0   WSW   1.00  15.0   WSW   16.8   19.1   17.2  1024.0  0.00  0.00   0.000   0.001   28.4    48   16.4   29.0   8.79  .0725    116    1    100.0    5 
22/08/19  19:10   18.7   18.7   18.6    80   15.2  11.0   WSW   0.92  14.0   WSW   17.2   19.2   17.6  1024.0  0.00  0.00   0.000   0.001   28.4    48   16.4   29.0   8.79  .0725    117    1    100.0    5 
22/08/19  19:15   18.6   18.7   18.6    80   15.1  12.0   WSW   1.00  15.0   WSW   16.7   19.1   17.2  1024.1  0.00  0.00   0.000   0.001   28.4    48   16.4   29.0   8.79  .0725    116    1    100.0    5 
22/08/19  19:20   18.5   18.6   18.5    80   15.0  13.0   WSW   1.08  15.0   WSW   16.3   18.9   16.7  1024.1  0.00  0.00   0.000   0.001   28.4    48   16.4   29.0   8.79  .0725    116    1    100.0    5 
22/08/19  19:25   18.4   18.5   18.4    80   14.9  12.0   WSW   1.00  16.0   WSW   16.4   18.8   16.8  1024.1  0.00  0.00   0.000   0.000   28.4    48   16.3   28.9   8.79  .0726    116    1    100.0    5 
22/08/19  19:30   18.4   18.4   18.3    81   15.1  11.0   WSW   0.92  15.0   WSW   16.8   18.9   17.3  1024.1  0.00  0.00   0.000   0.000   28.4    48   16.3   28.9   8.79  .0726    116    1    100.0    5 
22/08/19  19:35   18.3   18.4   18.3    81   15.0  11.0   WSW   0.92  15.0   WSW   16.7   18.7   17.1  1024.0  0.00  0.00   0.000   0.000   28.4    48   16.3   28.9   8.79  .0726    117    1    100.0    5 
22/08/19  19:40   18.3   18.3   18.3    81   15.0   9.0   WSW   0.75  14.0   WSW   17.6   18.7   17.9  1024.1  0.00  0.00   0.000   0.000   28.3    48   16.3   28.8   8.79  .0726    115    1    100.0    5 
22/08/19  19:45   18.3   18.4   18.3    81   15.0  10.0   WSW   0.83  13.0   WSW   17.1   18.7   17.5  1024.2  0.00  0.00   0.000   0.000   28.3    48   16.3   28.8   8.79  .0726    116    1    100.0    5 
22/08/19  19:50   18.3   18.4   18.3    82   15.2   9.0   WSW   0.75  12.0   WSW   17.6   18.7   17.9  1024.2  0.00  0.00   0.000   0.000   28.3    48   16.3   28.8   8.79  .0726    115    1    100.0    5 
22/08/19  19:55   18.3   18.3   18.3    82   15.2   9.0   WSW   0.75  12.0   WSW   17.5   18.7   17.9  1024.1  0.00  0.00   0.000   0.000   28.4    48   16.3   28.9   8.79  .0726    116    1    100.0    5 
22/08/19  20:00   18.3   18.3   18.3    82   15.2  10.0   WSW   0.83  13.0   WSW   17.1   18.7   17.5  1024.1  0.00  0.00   0.000   0.000   28.3    48   16.3   28.8   8.79  .0726    116    1    100.0    5 
22/08/19  20:05   18.3   18.3   18.3    82   15.2   8.0   WSW   0.67  12.0   WSW   18.0   18.7   18.4  1024.2  0.00  0.00   0.000   0.000   28.3    48   16.3   28.8   8.79  .0726    117    1    100.0    5 
22/08/19  20:10   18.3   18.3   18.3    82   15.2   4.0   WSW   0.33   9.0   WSW   18.3   18.7   18.7  1024.2  0.00  0.00   0.000   0.000   28.3    48   16.2   28.8   8.79  .0726    117    1    100.0    5 
22/08/19  20:15   18.3   18.3   18.3    82   15.2   3.0   WSW   0.25   7.0   WSW   18.3   18.7   18.7  1024.3  0.00  0.00   0.000   0.000   28.2    48   16.2   28.7   8.79  .0726    117    1    100.0    5 
22/08/19  20:20   18.2   18.3   18.2    81   14.9   2.0   WSW   0.17   7.0   WSW   18.2   18.6   18.6  1024.3  0.00  0.00   0.001   0.000   28.2    48   16.2   28.7   8.79  .0726    117    1    100.0    5 
22/08/19  20:25   18.1   18.2   18.1    81   14.7   2.0   WSW   0.17   5.0   WSW   18.1   18.4   18.4  1024.4  0.00  0.00   0.001   0.000   28.2    48   16.1   28.6   8.80  .0727    117    1    100.0    5 
22/08/19  20:30   18.1   18.1   18.1    80   14.6   2.0   WSW   0.17   6.0   WSW   18.1   18.4   18.4  1024.5  0.00  0.00   0.001   0.000   28.2    48   16.1   28.6   8.80  .0727    116    1    100.0    5 
22/08/19  20:35   18.1   18.1   18.0    80   14.6   1.0   WSW   0.08   4.0   WSW   18.1   18.4   18.4  1024.5  0.00  0.00   0.001   0.000   28.1    48   16.1   28.5   8.80  .0727    118    1    100.0    5 
22/08/19  20:40   18.0   18.1   18.0    80   14.5   2.0   WSW   0.17   6.0   WSW   18.0   18.3   18.3  1024.5  0.00  0.00   0.001   0.000   28.1    48   16.1   28.5   8.80  .0727    117    1    100.0    5 
22/08/19  20:45   17.9   18.0   17.9    79   14.2   3.0   WSW   0.25   5.0   WSW   17.9   18.2   18.2  1024.6  0.00  0.00   0.001   0.000   28.1    48   16.1   28.5   8.80  .0727    117    1    100.0    5 
22/08/19  20:50   17.9   17.9   17.9    79   14.2   1.0   WSW   0.08   4.0   WSW   17.9   18.2   18.2  1024.6  0.00  0.00   0.002   0.000   28.1    48   16.1   28.5   8.80  .0727    115    1    100.0    5 
22/08/19  20:55   17.9   17.9   17.8    78   14.0   2.0   WSW   0.17   5.0   WSW   17.9   18.1   18.1  1024.7  0.00  0.00   0.002   0.000   28.1    48   16.0   28.4   8.80  .0727    116    1    100.0    5 
22/08/19  21:00   17.8   17.9   17.8    78   13.9   1.0   WSW   0.08   6.0   WSW   17.8   18.1   18.1  1024.7  0.00  0.00   0.002   0.000   28.1    48   16.0   28.4   8.80  .0727    117    1    100.0    5 
22/08/19  21:05   17.8   17.8   17.8    78   13.9   2.0   WSW   0.17   5.0   WSW   17.8   18.1   18.1  1024.7  0.00  0.00   0.002   0.000   28.0    48   16.0   28.3   8.80  .0727    117    1    100.0    5 
22/08/19  21:10   17.8   17.8   17.8    78   13.9   2.0   WSW   0.17   6.0   WSW   17.8   18.1   18.1  1024.7  0.00  0.00   0.002   0.000   28.0    48   16.0   28.3   8.80  .0727    117    1    100.0    5 
22/08/19  21:15   17.8   17.8   17.8    78   13.9   1.0   WSW   0.08   4.0   WSW   17.8   17.9   17.9  1024.7  0.00  0.00   0.002   0.000   28.0    48   16.0   28.3   8.80  .0727    116    1    100.0    5 
22/08/19  21:20   17.8   17.8   17.8    77   13.7   1.0   WSW   0.08   4.0   WSW   17.8   17.9   17.9  1024.7  0.00  0.00   0.002   0.000   27.9    48   15.9   28.2   8.80  .0727    117    1    100.0    5 
22/08/19  21:25   17.7   17.8   17.7    77   13.6   2.0   WSW   0.17   5.0   WSW   17.7   17.8   17.8  1024.7  0.00  0.00   0.002   0.000   27.9    48   15.9   28.2   8.80  .0727    117    1    100.0    5 
22/08/19  21:30   17.7   17.7   17.7    77   13.6   1.0   WSW   0.08   5.0   WSW   17.7   17.8   17.8  1024.7  0.00  0.00   0.002   0.000   27.9    48   15.9   28.2   8.80  .0727    116    1    100.0    5 
22/08/19  21:35   17.7   17.7   17.7    77   13.6   1.0   WSW   0.08   3.0   WSW   17.7   17.8   17.8  1024.7  0.00  0.00   0.002   0.000   27.9    48   15.9   28.1   8.81  .0728    116    1    100.0    5 
22/08/19  21:40   17.7   17.7   17.7    78   13.8   2.0   WSW   0.17   5.0   WSW   17.7   17.8   17.8  1024.6  0.00  0.00   0.002   0.000   27.9    48   15.9   28.1   8.81  .0728    117    1    100.0    5 
22/08/19  21:45   17.7   17.7   17.7    78   13.8   0.0   WSW   0.00   2.0   WSW   17.7   17.8   17.8  1024.6  0.00  0.00   0.002   0.000   27.9    48   15.9   28.1   8.81  .0728    114    1    100.0    5 
22/08/19  21:50   17.7   17.7   17.6    78   13.8   0.0   WSW   0.00   3.0   WSW   17.7   17.8   17.8  1024.7  0.00  0.00   0.002   0.000   27.8    48   15.8   28.1   8.81  .0728    115    1    100.0    5 
22/08/19  21:55   17.6   17.7   17.6    78   13.7   0.0   WSW   0.00   4.0   WSW   17.6   17.8   17.8  1024.6  0.00  0.00   0.003   0.000   27.8    48   15.8   28.1   8.81  .0728    116    1    100.0    5 
22/08/19  22:00   17.6   17.6   17.6    78   13.7   1.0   WSW   0.08   4.0   WSW   17.6   17.7   17.7  1024.6  0.00  0.00   0.003   0.000   27.8    48   15.8   28.1   8.81  .0728    116    1    100.0    5 
22/08/19  22:05   17.5   17.6   17.5    78   13.6   0.0   WSW   0.00   3.0   WSW   17.5   17.6   17.6  1024.6  0.00  0.00   0.003   0.000   27.8    48   15.8   28.1   8.81  .0728    115    1    100.0    5 
22/08/19  22:10   17.4   17.5   17.4    78   13.6   0.0   ---   0.00   0.0   ---   17.4   17.6   17.6  1024.6  0.00  0.00   0.003   0.000   27.8    48   15.8   27.9   8.81  .0728    117    1    100.0    5 
22/08/19  22:15   17.4   17.5   17.4    78   13.6   0.0   WSW   0.00   3.0   WSW   17.4   17.6   17.6  1024.6  0.00  0.00   0.003   0.000   27.8    48   15.8   27.9   8.81  .0728    116    1    100.0    5 
22/08/19  22:20   17.4   17.4   17.4    78   13.5   0.0   WSW   0.00   3.0   WSW   17.4   17.5   17.5  1024.7  0.00  0.00   0.003   0.000   27.7    48   15.7   27.9   8.81  .0728    117    1    100.0    5 
22/08/19  22:25   17.3   17.4   17.3    78   13.5   0.0   ---   0.00   0.0   ---   17.3   17.4   17.4  1024.8  0.00  0.00   0.003   0.000   27.7    48   15.7   27.9   8.81  .0728    116    1    100.0    5 
22/08/19  22:30   17.3   17.3   17.3    79   13.6   0.0   ---   0.00   0.0   ---   17.3   17.4   17.4  1024.7  0.00  0.00   0.004   0.000   27.7    48   15.7   27.9   8.81  .0728    117    1    100.0    5 
22/08/19  22:35   17.3   17.3   17.3    79   13.6   1.0   WSW   0.08   4.0   WSW   17.3   17.4   17.4  1024.7  0.00  0.00   0.004   0.000   27.7    48   15.7   27.9   8.81  .0728    117    1    100.0    5 
22/08/19  22:40   17.2   17.3   17.2    79   13.5   0.0   WSW   0.00   3.0   WSW   17.2   17.3   17.3  1024.8  0.00  0.00   0.004   0.000   27.7    48   15.7   27.8   8.81  .0728    116    1    100.0    5 
22/08/19  22:45   17.2   17.2   17.2    79   13.5   0.0   WSW   0.00   3.0   WSW   17.2   17.3   17.3  1024.8  0.00  0.00   0.004   0.000   27.7    48   15.7   27.8   8.81  .0728    115    1    100.0    5 
22/08/19  22:50   17.1   17.2   17.1    80   13.6   1.0   WSW   0.08   4.0   WSW   17.1   17.3   17.3  1024.8  0.00  0.00   0.004   0.000   27.6    48   15.6   27.7   8.82  .0729    117    1    100.0    5 
22/08/19  22:55   17.1   17.1   17.1    80   13.6   1.0   WSW   0.08   4.0   WSW   17.1   17.2   17.2  1024.8  0.00  0.00   0.004   0.000   27.6    48   15.6   27.7   8.82  .0729    117    1    100.0    5 
22/08/19  23:00   17.1   17.1   17.1    80   13.6   1.0   WSW   0.08   4.0   WSW   17.1   17.2   17.2  1024.8  0.00  0.00   0.004   0.000   27.6    48   15.6   27.7   8.82  .0729    117    1    100.0    5 
22/08/19  23:05   17.1   17.1   17.1    80   13.6   1.0   WSW   0.08   4.0   WSW   17.1   17.2   17.2  1024.8  0.00  0.00   0.004   0.000   27.6    48   15.6   27.7   8.82  .0729    117    1    100.0    5 
22/08/19  23:10   17.0   17.1   17.0    80   13.5   0.0   WSW   0.00   3.0   WSW   17.0   17.2   17.2  1024.9  0.00  0.00   0.005   0.000   27.6    48   15.6   27.7   8.82  .0729    116    1    100.0    5 
22/08/19  23:15   16.9   17.0   16.9    80   13.5   0.0   ---   0.00   0.0   ---   16.9   17.1   17.1  1024.9  0.00  0.00   0.005   0.000   27.6    48   15.6   27.7   8.82  .0729    117    1    100.0    5 
22/08/19  23:20   16.9   17.0   16.9    80   13.5   0.0   ---   0.00   0.0   ---   16.9   17.1   17.1  1024.9  0.00  0.00   0.005   0.000   27.6    48   15.6   27.7   8.82  .0729    117    1    100.0    5 
22/08/19  23:25   16.9   16.9   16.9    81   13.6   0.0   WSW   0.00   1.0   WSW   16.9   17.1   17.1  1024.8  0.00  0.00   0.005   0.000   27.6    48   15.6   27.7   8.82  .0729    117    1    100.0    5 
22/08/19  23:30   16.8   16.9   16.8    81   13.6   0.0   ---   0.00   0.0   ---   16.8   17.0   17.0  1024.8  0.00  0.00   0.005   0.000   27.6    48   15.6   27.7   8.82  .0729    115    1    100.0    5 
22/08/19  23:35   16.8   16.8   16.8    81   13.5   0.0   WSW   0.00   2.0   WSW   16.8   16.9   16.9  1024.8  0.00  0.00   0.005   0.000   27.5    48   15.5   27.6   8.82  .0729    117    1    100.0    5 
22/08/19  23:40   16.8   16.8   16.7    81   13.5   0.0   ---   0.00   0.0   ---   16.8   16.9   16.9  1024.9  0.00  0.00   0.005   0.000   27.5    48   15.5   27.6   8.82  .0729    117    1    100.0    5 
22/08/19  23:45   16.7   16.7   16.7    81   13.4   0.0   ---   0.00   0.0   ---   16.7   16.8   16.8  1024.8  0.00  0.00   0.006   0.000   27.5    48   15.5   27.6   8.82  .0729    117    1    100.0    5 
22/08/19  23:50   16.6   16.7   16.6    81   13.3   0.0   ---   0.00   0.0   ---   16.6   16.7   16.7  1024.8  0.00  0.00   0.006   0.000   27.5    48   15.5   27.6   8.82  .0729    115    1    100.0    5 
22/08/19  23:55   16.6   16.6   16.6    81   13.3   0.0   ---   0.00   0.0   ---   16.6   16.7   16.7  1024.8  0.00  0.00   0.006   0.000   27.4    48   15.5   27.5   8.82  .0729    115    1    100.0    5 
23/08/19  00:00   16.5   16.6   16.5    81   13.2   0.0   ---   0.00   0.0   ---   16.5   16.6   16.6  1024.8  0.00  0.00   0.006   0.000   27.4    48   15.5   27.5   8.82  .0729    117    1    100.0    5 
23/08/19   0:05   16.4   16.5   16.4    81   13.2   0.0   ---   0.00   0.0   ---   16.4   16.5   16.5  1024.8  0.00  0.00   0.007   0.000   27.4    48   15.5   27.5   8.82  .0729    114    1    100.0    5 
23/08/19   0:10   16.3   16.4   16.3    81   13.1   0.0   ---   0.00   0.0   ---   16.3   16.4   16.4  1024.8  0.00  0.00   0.007   0.000   27.4    48   15.5   27.5   8.82  .0729    118    1    100.0    5 
23/08/19   0:15   16.3   16.3   16.3    82   13.3   0.0   ---   0.00   0.0   ---   16.3   16.4   16.4  1024.9  0.00  0.00   0.007   0.000   27.4    48   15.4   27.4   8.82  .0729    117    1    100.0    5 
23/08/19   0:20   16.3   16.3   16.3    82   13.2   0.0   ---   0.00   0.0   ---   16.3   16.3   16.3  1024.9  0.00  0.00   0.007   0.000   27.4    48   15.4   27.4   8.82  .0729    117    1    100.0    5 
23/08/19   0:25   16.2   16.2   16.2    82   13.1   0.0   ---   0.00   0.0   ---   16.2   16.2   16.2  1024.9  0.00  0.00   0.008   0.000   27.4    48   15.4   27.4   8.82  .0729    117    1    100.0    5 
23/08/19   0:30   16.1   16.2   16.1    82   13.0   0.0   ---   0.00   0.0   ---   16.1   16.2   16.2  1024.8  0.00  0.00   0.008   0.000   27.3    48   15.4   27.3   8.83  .0730    117    1    100.0    5 
23/08/19   0:35   16.1   16.1   16.1    82   13.0   0.0   ---   0.00   0.0   ---   16.1   16.1   16.1  1024.9  0.00  0.00   0.008   0.000   27.3    48   15.4   27.3   8.83  .0730    116    1    100.0    5 
23/08/19   0:40   15.9   16.1   15.9    82   12.9   0.0   ---   0.00   0.0   ---   15.9   16.0   16.0  1024.9  0.00  0.00   0.008   0.000   27.3    48   15.4   27.3   8.83  .0730    117    1    100.0    5 
23/08/19   0:45   15.9   15.9   15.9    82   12.8   0.0   ---   0.00   0.0   ---   15.9   15.9   15.9  1024.7  0.00  0.00   0.008   0.000   27.3    48   15.4   27.3   8.83  .0729    117    1    100.0    5 
23/08/19   0:50   15.9   15.9   15.9    82   12.8   0.0   ---   0.00   0.0   ---   15.9   15.9   15.9  1024.7  0.00  0.00   0.008   0.000   27.3    48   15.4   27.3   8.83  .0729    117    1    100.0    5 
23/08/19   0:55   15.9   15.9   15.9    82   12.8   0.0   ---   0.00   0.0   ---   15.9   15.9   15.9  1024.7  0.00  0.00   0.008   0.000   27.3    48   15.3   27.3   8.83  .0730    117    1    100.0    5 
23/08/19   1:00   15.8   15.9   15.8    83   12.9   0.0   ---   0.00   0.0   ---   15.8   15.9   15.9  1024.7  0.00  0.00   0.009   0.000   27.3    48   15.3   27.3   8.83  .0730    117    1    100.0    5 
23/08/19   1:05   15.8   15.8   15.8    83   12.9   0.0   ---   0.00   0.0   ---   15.8   15.8   15.8  1024.6  0.00  0.00   0.009   0.000   27.3    48   15.3   27.3   8.83  .0730    114    1    100.0    5 
23/08/19   1:10   15.7   15.8   15.7    83   12.8   0.0   ---   0.00   0.0   ---   15.7   15.7   15.7  1024.6  0.00  0.00   0.009   0.000   27.2    48   15.3   27.2   8.83  .0730    116    1    100.0    5 
23/08/19   1:15   15.7   15.7   15.7    82   12.6   0.0   ---   0.00   0.0   ---   15.7   15.7   15.7  1024.7  0.00  0.00   0.009   0.000   27.2    48   15.3   27.2   8.83  .0730    118    1    100.0    5 
23/08/19   1:20   15.6   15.7   15.6    83   12.7   0.0   ---   0.00   0.0   ---   15.6   15.6   15.6  1024.6  0.00  0.00   0.010   0.000   27.2    48   15.3   27.2   8.83  .0730    116    1    100.0    5 
23/08/19   1:25   15.5   15.6   15.5    83   12.6   0.0   WSW   0.00   2.0   WSW   15.5   15.5   15.5  1024.5  0.00  0.00   0.010   0.000   27.2    48   15.3   27.2   8.83  .0730    115    1    100.0    5 
23/08/19   1:30   15.4   15.5   15.4    83   12.5   0.0   ---   0.00   0.0   ---   15.4   15.4   15.4  1024.5  0.00  0.00   0.010   0.000   27.2    48   15.2   27.2   8.83  .0730    117    1    100.0    5 
23/08/19   1:35   15.3   15.4   15.3    83   12.5   0.0   ---   0.00   0.0   ---   15.3   15.3   15.3  1024.5  0.00  0.00   0.010   0.000   27.2    48   15.2   27.2   8.83  .0730    116    1    100.0    5 
23/08/19   1:40   15.2   15.3   15.2    83   12.4   0.0   ---   0.00   0.0   ---   15.2   15.2   15.2  1024.5  0.00  0.00   0.011   0.000   27.2    48   15.2   27.2   8.83  .0730    117    1    100.0    5 
23/08/19   1:45   15.2   15.2   15.2    83   12.4   0.0   ---   0.00   0.0   ---   15.2   15.2   15.2  1024.5  0.00  0.00   0.011   0.000   27.2    48   15.2   27.2   8.83  .0730    117    1    100.0    5 
23/08/19   1:50   15.2   15.2   15.2    83   12.3   0.0   ---   0.00   0.0   ---   15.2   15.1   15.1  1024.5  0.00  0.00   0.011   0.000   27.1    48   15.2   27.1   8.83  .0730    117    1    100.0    5 
23/08/19   1:55   15.1   15.2   15.1    83   12.2   0.0   ---   0.00   0.0   ---   15.1   15.1   15.1  1024.5  0.00  0.00   0.011   0.000   27.1    48   15.2   27.1   8.83  .0730    116    1    100.0    5 
23/08/19   2:00   15.1   15.1   15.1    83   12.2   0.0   ---   0.00   0.0   ---   15.1   15.0   15.0  1024.5  0.00  0.00   0.011   0.000   27.1    48   15.2   27.1   8.83  .0730    114    1    100.0    5 
23/08/19   2:05   15.0   15.1   15.0    84   12.3   0.0   ---   0.00   0.0   ---   15.0   15.0   15.0  1024.4  0.00  0.00   0.012   0.000   27.1    48   15.1   27.0   8.84  .0730    117    1    100.0    5 
23/08/19   2:10   14.9   15.0   14.9    84   12.3   0.0   ---   0.00   0.0   ---   14.9   14.9   14.9  1024.4  0.00  0.00   0.012   0.000   27.1    48   15.1   27.0   8.84  .0730    116    1    100.0    5 
23/08/19   2:15   14.9   14.9   14.9    84   12.2   0.0   ---   0.00   0.0   ---   14.9   14.8   14.8  1024.3  0.00  0.00   0.012   0.000   27.0    48   15.1   26.9   8.84  .0730    118    1    100.0    5 
23/08/19   2:20   14.8   14.9   14.8    84   12.2   0.0   ---   0.00   0.0   ---   14.8   14.8   14.8  1024.4  0.00  0.00   0.012   0.000   27.0    48   15.1   26.9   8.84  .0730    117    1    100.0    5 
23/08/19   2:25   14.8   14.8   14.8    84   12.2   0.0   ---   0.00   0.0   ---   14.8   14.8   14.8  1024.4  0.00  0.00   0.012   0.000   26.9    48   15.0   26.9   8.84  .0730    116    1    100.0    5 
23/08/19   2:30   14.8   14.8   14.8    84   12.2   0.0   ---   0.00   0.0   ---   14.8   14.8   14.8  1024.3  0.00  0.00   0.012   0.000   26.9    48   15.0   26.9   8.84  .0730    116    1    100.0    5 
23/08/19   2:35   14.8   14.8   14.8    84   12.2   0.0   ---   0.00   0.0   ---   14.8   14.8   14.8  1024.4  0.00  0.00   0.012   0.000   26.9    48   15.0   26.8   8.84  .0731    116    1    100.0    5 
23/08/19   2:40   14.8   14.8   14.8    84   12.1   0.0   ---   0.00   0.0   ---   14.8   14.7   14.7  1024.3  0.00  0.00   0.012   0.000   26.9    48   15.0   26.8   8.84  .0731    117    1    100.0    5 
23/08/19   2:45   14.8   14.8   14.8    84   12.1   0.0   ---   0.00   0.0   ---   14.8   14.7   14.7  1024.3  0.00  0.00   0.012   0.000   26.8    48   14.9   26.8   8.84  .0731    117    1    100.0    5 
23/08/19   2:50   14.8   14.8   14.8    84   12.2   0.0   ---   0.00   0.0   ---   14.8   14.8   14.8  1024.3  0.00  0.00   0.012   0.000   26.8    48   14.9   26.8   8.84  .0731    117    1    100.0    5 
23/08/19   2:55   14.8   14.8   14.8    84   12.1   0.0   ---   0.00   0.0   ---   14.8   14.7   14.7  1024.3  0.00  0.00   0.012   0.000   26.8    48   14.9   26.8   8.84  .0731    116    1    100.0    5 
23/08/19   3:00   14.8   14.8   14.8    84   12.1   0.0   ---   0.00   0.0   ---   14.8   14.7   14.7  1024.4  0.00  0.00   0.012   0.000   26.8    48   14.8   26.7   8.85  .0731    117    1    100.0    5 
23/08/19   3:05   14.8   14.8   14.8    84   12.1   0.0   ---   0.00   0.0   ---   14.8   14.7   14.7  1024.3  0.00  0.00   0.012   0.000   26.8    48   14.9   26.8   8.84  .0731    117    1    100.0    5 
23/08/19   3:10   14.8   14.8   14.8    85   12.3   0.0   ---   0.00   0.0   ---   14.8   14.8   14.8  1024.3  0.00  0.00   0.012   0.000   26.8    48   14.8   26.7   8.85  .0731    114    1    100.0    5 
23/08/19   3:15   14.7   14.8   14.7    84   12.0   0.0   ---   0.00   0.0   ---   14.7   14.7   14.7  1024.3  0.00  0.00   0.013   0.000   26.7    48   14.8   26.7   8.85  .0731    116    1    100.0    5 
23/08/19   3:20   14.7   14.7   14.7    85   12.2   0.0   ---   0.00   0.0   ---   14.7   14.6   14.6  1024.4  0.00  0.00   0.013   0.000   26.7    48   14.8   26.7   8.85  .0731    117    1    100.0    5 
23/08/19   3:25   14.7   14.7   14.7    84   12.0   0.0   ---   0.00   0.0   ---   14.7   14.6   14.6  1024.3  0.00  0.00   0.013   0.000   26.7    48   14.8   26.7   8.85  .0731    117    1    100.0    5 
23/08/19   3:30   14.7   14.7   14.6    84   12.0   0.0   ---   0.00   0.0   ---   14.7   14.6   14.6  1024.4  0.00  0.00   0.013   0.000   26.7    48   14.7   26.6   8.85  .0731    116    1    100.0    5 
23/08/19   3:35   14.6   14.7   14.6    84   11.9   0.0   ---   0.00   0.0   ---   14.6   14.6   14.6  1024.4  0.00  0.00   0.013   0.000   26.7    48   14.7   26.6   8.85  .0731    117    1    100.0    5 
23/08/19   3:40   14.6   14.7   14.6    84   11.9   0.0   ---   0.00   0.0   ---   14.6   14.6   14.6  1024.3  0.00  0.00   0.013   0.000   26.7    48   14.7   26.6   8.85  .0731    117    1    100.0    5 
23/08/19   3:45   14.6   14.6   14.6    84   11.9   0.0   ---   0.00   0.0   ---   14.6   14.6   14.6  1024.3  0.00  0.00   0.013   0.000   26.6    48   14.7   26.6   8.85  .0731    115    1    100.0    5 
23/08/19   3:50   14.6   14.6   14.6    84   11.9   0.0   ---   0.00   0.0   ---   14.6   14.5   14.5  1024.3  0.00  0.00   0.013   0.000   26.6    48   14.7   26.6   8.85  .0731    115    1    100.0    5 
23/08/19   3:55   14.5   14.6   14.5    84   11.8   0.0   ---   0.00   0.0   ---   14.5   14.4   14.4  1024.3  0.00  0.00   0.013   0.000   26.7    48   14.7   26.6   8.85  .0731    116    1    100.0    5 
23/08/19   4:00   14.4   14.5   14.4    85   12.0   0.0   ---   0.00   0.0   ---   14.4   14.4   14.4  1024.3  0.00  0.00   0.014   0.000   26.6    48   14.7   26.6   8.85  .0731    117    1    100.0    5 
23/08/19   4:05   14.4   14.4   14.4    85   11.9   0.0   ---   0.00   0.0   ---   14.4   14.3   14.3  1024.4  0.00  0.00   0.014   0.000   26.6    48   14.7   26.6   8.85  .0731    117    1    100.0    5 
23/08/19   4:10   14.3   14.4   14.3    85   11.8   0.0   ---   0.00   0.0   ---   14.3   14.3   14.3  1024.4  0.00  0.00   0.014   0.000   26.6    48   14.6   26.5   8.85  .0732    117    1    100.0    5 
23/08/19   4:15   14.3   14.4   14.3    85   11.8   0.0   ---   0.00   0.0   ---   14.3   14.3   14.3  1024.3  0.00  0.00   0.014   0.000   26.6    48   14.6   26.5   8.85  .0732    117    1    100.0    5 
23/08/19   4:20   14.2   14.3   14.2    85   11.7   0.0   ---   0.00   0.0   ---   14.2   14.2   14.2  1024.3  0.00  0.00   0.014   0.000   26.5    48   14.6   26.4   8.86  .0732    117    1    100.0    5 
23/08/19   4:25   14.3   14.3   14.2    85   11.8   0.0   ---   0.00   0.0   ---   14.3   14.2   14.2  1024.3  0.00  0.00   0.014   0.000   26.5    48   14.6   26.4   8.86  .0732    116    1    100.0    5 
23/08/19   4:30   14.3   14.3   14.3    85   11.8   0.0   ---   0.00   0.0   ---   14.3   14.2   14.2  1024.3  0.00  0.00   0.014   0.000   26.4    48   14.5   26.4   8.86  .0732    116    1    100.0    5 
23/08/19   4:35   14.3   14.3   14.3    85   11.8   0.0   ---   0.00   0.0   ---   14.3   14.2   14.2  1024.3  0.00  0.00   0.014   0.000   26.5    48   14.6   26.4   8.86  .0732    117    1    100.0    5 
23/08/19   4:40   14.2   14.3   14.2    85   11.7   0.0   ---   0.00   0.0   ---   14.2   14.2   14.2  1024.3  0.00  0.00   0.014   0.000   26.4    48   14.5   26.4   8.86  .0732    116    1    100.0    5 
23/08/19   4:45   14.2   14.3   14.2    85   11.7   0.0   ---   0.00   0.0   ---   14.2   14.2   14.2  1024.3  0.00  0.00   0.014   0.000   26.4    48   14.5   26.4   8.86  .0732    116    1    100.0    5 
23/08/19   4:50   14.2   14.2   14.2    85   11.7   0.0   ---   0.00   0.0   ---   14.2   14.1   14.1  1024.3  0.00  0.00   0.014   0.000   26.4    48   14.5   26.3   8.86  .0732    116    1    100.0    5 
23/08/19   4:55   14.2   14.2   14.2    85   11.7   0.0   ---   0.00   0.0   ---   14.2   14.1   14.1  1024.2  0.00  0.00   0.014   0.000   26.3    48   14.4   26.3   8.86  .0732    117    1    100.0    5 
23/08/19   5:00   14.2   14.2   14.2    85   11.7   0.0   ---   0.00   0.0   ---   14.2   14.1   14.1  1024.2  0.00  0.00   0.014   0.000   26.3    48   14.4   26.3   8.86  .0732    117    1    100.0    5 
23/08/19   5:05   14.2   14.2   14.2    85   11.7   0.0   ---   0.00   0.0   ---   14.2   14.2   14.2  1024.3  0.00  0.00   0.014   0.000   26.3    48   14.4   26.3   8.86  .0732    117    1    100.0    5 
23/08/19   5:10   14.2   14.2   14.2    85   11.7   0.0   ---   0.00   0.0   ---   14.2   14.1   14.1  1024.3  0.00  0.00   0.014   0.000   26.3    48   14.4   26.3   8.86  .0732    117    1    100.0    5 
23/08/19   5:15   14.2   14.2   14.2    85   11.7   0.0   ---   0.00   0.0   ---   14.2   14.1   14.1  1024.3  0.00  0.00   0.014   0.000   26.3    48   14.4   26.3   8.86  .0732    117    1    100.0    5 
23/08/19   5:20   14.2   14.2   14.2    85   11.7   0.0   ---   0.00   0.0   ---   14.2   14.1   14.1  1024.3  0.00  0.00   0.014   0.000   26.2    48   14.3   26.2   8.87  .0733    117    1    100.0    5 
23/08/19   5:25   14.1   14.2   14.1    85   11.6   0.0   ---   0.00   0.0   ---   14.1   14.1   14.1  1024.2  0.00  0.00   0.015   0.000   26.2    48   14.3   26.2   8.87  .0733    117    1    100.0    5 
23/08/19   5:30   14.1   14.1   14.1    85   11.6   0.0   ---   0.00   0.0   ---   14.1   14.1   14.1  1024.2  0.00  0.00   0.015   0.000   26.2    48   14.3   26.2   8.87  .0733    117    1    100.0    5 
23/08/19   5:35   14.1   14.1   14.1    85   11.6   0.0   ---   0.00   0.0   ---   14.1   14.0   14.0  1024.3  0.00  0.00   0.015   0.000   26.2    48   14.3   26.2   8.87  .0733    116    1    100.0    5 
23/08/19   5:40   14.0   14.1   14.0    85   11.5   0.0   ---   0.00   0.0   ---   14.0   13.9   13.9  1024.3  0.00  0.00   0.015   0.000   26.2    48   14.3   26.2   8.87  .0733    115    1    100.0    5 
23/08/19   5:45   14.0   14.1   14.0    85   11.5   0.0   ---   0.00   0.0   ---   14.0   13.9   13.9  1024.3  0.00  0.00   0.015   0.000   26.1    48   14.2   26.1   8.87  .0733    117    1    100.0    5 
23/08/19   5:50   14.0   14.0   14.0    85   11.5   0.0   ---   0.00   0.0   ---   14.0   13.9   13.9  1024.4  0.00  0.00   0.015   0.000   26.1    48   14.2   26.1   8.87  .0733    117    1    100.0    5 
23/08/19   5:55   14.0   14.0   13.9    85   11.5   0.0   ---   0.00   0.0   ---   14.0   13.9   13.9  1024.4  0.00  0.00   0.015   0.000   26.1    48   14.2   26.1   8.87  .0733    116    1    100.0    5 
23/08/19   6:00   14.0   14.0   14.0    86   11.7   0.0   ---   0.00   0.0   ---   14.0   13.9   13.9  1024.4  0.00  0.00   0.015   0.000   26.1    48   14.2   26.1   8.87  .0733    117    1    100.0    5 
23/08/19   6:05   14.0   14.1   14.0    86   11.7   0.0   ---   0.00   0.0   ---   14.0   13.9   13.9  1024.4  0.00  0.00   0.015   0.000   26.1    48   14.2   26.1   8.87  .0733    116    1    100.0    5 
23/08/19   6:10   14.0   14.1   14.0    86   11.7   0.0   WSW   0.00   1.0   WSW   14.0   13.9   13.9  1024.5  0.00  0.00   0.015   0.000   26.1    48   14.2   26.1   8.87  .0733    116    1    100.0    5 
23/08/19   6:15   14.0   14.0   14.0    86   11.7   0.0   ---   0.00   0.0   ---   14.0   13.9   13.9  1024.5  0.00  0.00   0.015   0.000   26.0    48   14.1   26.0   8.87  .0733    116    1    100.0    5 
23/08/19   6:20   14.0   14.0   14.0    85   11.5   0.0   ---   0.00   0.0   ---   14.0   13.9   13.9  1024.4  0.00  0.00   0.015   0.000   26.0    48   14.1   26.0   8.87  .0733    117    1    100.0    5 
23/08/19   6:25   13.9   14.0   13.9    85   11.5   0.0   WNW   0.00   1.0   WNW   13.9   13.9   13.9  1024.4  0.00  0.00   0.015   0.000   25.9    48   14.1   25.9   8.88  .0734    117    1    100.0    5 
23/08/19   6:30   13.9   14.0   13.9    86   11.6   0.0   ---   0.00   0.0   ---   13.9   13.9   13.9  1024.5  0.00  0.00   0.015   0.000   25.9    48   14.1   25.9   8.88  .0734    118    1    100.0    5 
23/08/19   6:35   14.0   14.0   13.9    86   11.7   0.0   ---   0.00   0.0   ---   14.0   13.9   13.9  1024.5  0.00  0.00   0.015   0.000   25.9    48   14.1   25.9   8.88  .0734    117    1    100.0    5 
23/08/19   6:40   14.0   14.0   13.9    86   11.7   0.0   ---   0.00   0.0   ---   14.0   13.9   13.9  1024.4  0.00  0.00   0.015   0.000   25.9    48   14.0   25.8   8.88  .0734    117    1    100.0    5 
23/08/19   6:45   14.1   14.1   14.0    86   11.7   0.0   ---   0.00   0.0   ---   14.1   14.0   14.0  1024.4  0.00  0.00   0.015   0.000   25.9    48   14.0   25.8   8.88  .0734    116    1    100.0    5 
23/08/19   6:50   14.2   14.2   14.1    86   11.9   0.0   ---   0.00   0.0   ---   14.2   14.1   14.1  1024.4  0.00  0.00   0.014   0.000   25.9    48   14.0   25.8   8.88  .0734    116    1    100.0    5 
23/08/19   6:55   14.3   14.3   14.2    86   12.0   0.0   ---   0.00   0.0   ---   14.3   14.2   14.2  1024.5  0.00  0.00   0.014   0.000   25.8    48   14.0   25.8   8.88  .0734    115    1    100.0    5 
23/08/19   7:00   14.4   14.4   14.3    86   12.1   0.0    NW   0.00   1.0    NW   14.4   14.3   14.3  1024.5  0.00  0.00   0.014   0.000   25.8    48   14.0   25.8   8.88  .0734    116    1    100.0    5 
23/08/19   7:05   14.6   14.6   14.4    86   12.2   0.0   ---   0.00   0.0   ---   14.6   14.6   14.6  1024.5  0.00  0.00   0.013   0.000   25.8    48   14.0   25.8   8.88  .0734    117    1    100.0    5 
23/08/19   7:10   14.7   14.7   14.6    86   12.3   0.0     N   0.00   1.0     N   14.7   14.7   14.7  1024.4  0.00  0.00   0.013   0.000   25.9    48   14.0   25.8   8.88  .0734    117    1    100.0    5 
23/08/19   7:15   14.8   14.8   14.7    86   12.5   0.0   ---   0.00   0.0   ---   14.8   14.8   14.8  1024.4  0.00  0.00   0.012   0.000   25.9    48   14.0   25.8   8.88  .0734    116    1    100.0    5 
77870